<?xml version="1.0" encoding="UTF-8" standalone="no" ?>
<gpx xmlns="http://www.topografix.com/GPX/1/1" xmlns:xsi="http://www.w3.org/2001/XMLSchema-instance" xsi:schemaLocation="http://www.topografix.com/GPX/1/1 http://www.topografix.com/GPX/1/1/gpx.xsd" version="1.1" creator="VisuGPX - https://www.visugpx.com">
  <metadata>
    <name>2024 05 22 Parcours Total 2024</name>
  </metadata>
  <trk>
    <name><![CDATA[CO normale]]></name>
    <extensions>
      <line xmlns="http://www.topografix.com/GPX/gpx_style/0/2">
        <color>1100ff</color>
        <width>4</width>
      </line>
    </extensions>
    <trkseg>
      <trkpt lat="48.07785" lon="3.245">
        <ele>181.3</ele>
        <time>2024-03-31T08:16:59Z</time>
      </trkpt>
      <trkpt lat="48.07785" lon="3.245">
        <ele>181.3</ele>
        <time>2024-03-31T08:17:00Z</time>
      </trkpt>
      <trkpt lat="48.07784" lon="3.245">
        <ele>181.2</ele>
        <time>2024-03-31T08:17:11Z</time>
      </trkpt>
      <trkpt lat="48.07781" lon="3.24496">
        <ele>181.2</ele>
        <time>2024-03-31T08:17:17Z</time>
      </trkpt>
      <trkpt lat="48.07777" lon="3.24487">
        <ele>181.5</ele>
        <time>2024-03-31T08:17:26Z</time>
      </trkpt>
      <trkpt lat="48.07776" lon="3.24486">
        <ele>181.5</ele>
        <time>2024-03-31T08:17:27Z</time>
      </trkpt>
      <trkpt lat="48.07772" lon="3.24473">
        <ele>181.8</ele>
        <time>2024-03-31T08:17:36Z</time>
      </trkpt>
      <trkpt lat="48.07771" lon="3.24466">
        <ele>181.8</ele>
        <time>2024-03-31T08:17:41Z</time>
      </trkpt>
      <trkpt lat="48.07769" lon="3.24452">
        <ele>181.9</ele>
        <time>2024-03-31T08:17:51Z</time>
      </trkpt>
      <trkpt lat="48.07766" lon="3.24441">
        <ele>182.1</ele>
        <time>2024-03-31T08:18:00Z</time>
      </trkpt>
      <trkpt lat="48.07762" lon="3.24429">
        <ele>182.6</ele>
        <time>2024-03-31T08:18:11Z</time>
      </trkpt>
      <trkpt lat="48.07759" lon="3.2442">
        <ele>182.9</ele>
        <time>2024-03-31T08:18:20Z</time>
      </trkpt>
      <trkpt lat="48.07756" lon="3.24412">
        <ele>183.2</ele>
        <time>2024-03-31T08:18:27Z</time>
      </trkpt>
      <trkpt lat="48.07753" lon="3.24404">
        <ele>183.5</ele>
        <time>2024-03-31T08:18:35Z</time>
      </trkpt>
      <trkpt lat="48.07748" lon="3.24393">
        <ele>183.8</ele>
        <time>2024-03-31T08:18:43Z</time>
      </trkpt>
      <trkpt lat="48.07748" lon="3.2439">
        <ele>183.9</ele>
        <time>2024-03-31T08:18:44Z</time>
      </trkpt>
      <trkpt lat="48.07741" lon="3.24374">
        <ele>183.8</ele>
        <time>2024-03-31T08:18:54Z</time>
      </trkpt>
      <trkpt lat="48.07736" lon="3.24366">
        <ele>183.9</ele>
        <time>2024-03-31T08:19:01Z</time>
      </trkpt>
      <trkpt lat="48.0773" lon="3.24356">
        <ele>184.2</ele>
        <time>2024-03-31T08:19:10Z</time>
      </trkpt>
      <trkpt lat="48.07725" lon="3.24343">
        <ele>184.7</ele>
        <time>2024-03-31T08:19:19Z</time>
      </trkpt>
      <trkpt lat="48.07721" lon="3.24333">
        <ele>185</ele>
        <time>2024-03-31T08:19:27Z</time>
      </trkpt>
      <trkpt lat="48.0772" lon="3.2433">
        <ele>184.9</ele>
        <time>2024-03-31T08:19:34Z</time>
      </trkpt>
      <trkpt lat="48.07717" lon="3.24323">
        <ele>184.9</ele>
        <time>2024-03-31T08:19:49Z</time>
      </trkpt>
      <trkpt lat="48.07705" lon="3.24303">
        <ele>185</ele>
        <time>2024-03-31T08:20:08Z</time>
      </trkpt>
      <trkpt lat="48.07696" lon="3.24286">
        <ele>185</ele>
        <time>2024-03-31T08:20:22Z</time>
      </trkpt>
      <trkpt lat="48.07693" lon="3.24276">
        <ele>185.1</ele>
        <time>2024-03-31T08:20:28Z</time>
      </trkpt>
      <trkpt lat="48.07688" lon="3.24267">
        <ele>185.3</ele>
        <time>2024-03-31T08:20:35Z</time>
      </trkpt>
      <trkpt lat="48.07685" lon="3.24256">
        <ele>185.5</ele>
        <time>2024-03-31T08:20:44Z</time>
      </trkpt>
      <trkpt lat="48.07681" lon="3.24237">
        <ele>185.7</ele>
        <time>2024-03-31T08:20:53Z</time>
      </trkpt>
      <trkpt lat="48.07677" lon="3.24221">
        <ele>186</ele>
        <time>2024-03-31T08:21:02Z</time>
      </trkpt>
      <trkpt lat="48.07677" lon="3.24217">
        <ele>186.2</ele>
        <time>2024-03-31T08:21:04Z</time>
      </trkpt>
      <trkpt lat="48.07674" lon="3.24205">
        <ele>186.6</ele>
        <time>2024-03-31T08:21:11Z</time>
      </trkpt>
      <trkpt lat="48.07672" lon="3.24195">
        <ele>187</ele>
        <time>2024-03-31T08:21:18Z</time>
      </trkpt>
      <trkpt lat="48.0767" lon="3.24181">
        <ele>187</ele>
        <time>2024-03-31T08:21:26Z</time>
      </trkpt>
      <trkpt lat="48.07668" lon="3.24168">
        <ele>187</ele>
        <time>2024-03-31T08:21:33Z</time>
      </trkpt>
      <trkpt lat="48.07664" lon="3.24151">
        <ele>187</ele>
        <time>2024-03-31T08:21:43Z</time>
      </trkpt>
      <trkpt lat="48.07662" lon="3.24144">
        <ele>187</ele>
        <time>2024-03-31T08:21:47Z</time>
      </trkpt>
      <trkpt lat="48.07658" lon="3.24127">
        <ele>187</ele>
        <time>2024-03-31T08:21:56Z</time>
      </trkpt>
      <trkpt lat="48.07654" lon="3.24115">
        <ele>187</ele>
        <time>2024-03-31T08:22:02Z</time>
      </trkpt>
      <trkpt lat="48.0765" lon="3.24097">
        <ele>187.3</ele>
        <time>2024-03-31T08:22:10Z</time>
      </trkpt>
      <trkpt lat="48.0765" lon="3.24085">
        <ele>187.6</ele>
        <time>2024-03-31T08:22:16Z</time>
      </trkpt>
      <trkpt lat="48.07649" lon="3.24079">
        <ele>187.5</ele>
        <time>2024-03-31T08:22:19Z</time>
      </trkpt>
      <trkpt lat="48.07648" lon="3.24061">
        <ele>187.1</ele>
        <time>2024-03-31T08:22:28Z</time>
      </trkpt>
      <trkpt lat="48.07648" lon="3.24057">
        <ele>187</ele>
        <time>2024-03-31T08:22:30Z</time>
      </trkpt>
      <trkpt lat="48.07647" lon="3.24012">
        <ele>186.7</ele>
        <time>2024-03-31T08:23:27Z</time>
      </trkpt>
      <trkpt lat="48.0765" lon="3.24006">
        <ele>186.6</ele>
        <time>2024-03-31T08:23:35Z</time>
      </trkpt>
      <trkpt lat="48.07655" lon="3.23999">
        <ele>186.4</ele>
        <time>2024-03-31T08:23:43Z</time>
      </trkpt>
      <trkpt lat="48.07659" lon="3.23993">
        <ele>186.2</ele>
        <time>2024-03-31T08:23:50Z</time>
      </trkpt>
      <trkpt lat="48.0766" lon="3.23992">
        <ele>186.2</ele>
        <time>2024-03-31T08:23:51Z</time>
      </trkpt>
      <trkpt lat="48.07663" lon="3.23986">
        <ele>186.1</ele>
        <time>2024-03-31T08:23:57Z</time>
      </trkpt>
      <trkpt lat="48.07666" lon="3.23983">
        <ele>186</ele>
        <time>2024-03-31T08:24:00Z</time>
      </trkpt>
      <trkpt lat="48.07669" lon="3.23976">
        <ele>185.9</ele>
        <time>2024-03-31T08:24:07Z</time>
      </trkpt>
      <trkpt lat="48.07673" lon="3.23969">
        <ele>185.7</ele>
        <time>2024-03-31T08:24:13Z</time>
      </trkpt>
      <trkpt lat="48.07679" lon="3.23962">
        <ele>185.2</ele>
        <time>2024-03-31T08:24:20Z</time>
      </trkpt>
      <trkpt lat="48.07684" lon="3.23957">
        <ele>184.8</ele>
        <time>2024-03-31T08:24:27Z</time>
      </trkpt>
      <trkpt lat="48.0769" lon="3.23949">
        <ele>184.3</ele>
        <time>2024-03-31T08:24:37Z</time>
      </trkpt>
      <trkpt lat="48.07697" lon="3.23941">
        <ele>183.9</ele>
        <time>2024-03-31T08:24:45Z</time>
      </trkpt>
      <trkpt lat="48.07702" lon="3.23933">
        <ele>183.7</ele>
        <time>2024-03-31T08:24:53Z</time>
      </trkpt>
      <trkpt lat="48.07704" lon="3.23931">
        <ele>183.7</ele>
        <time>2024-03-31T08:24:55Z</time>
      </trkpt>
      <trkpt lat="48.07708" lon="3.23928">
        <ele>183.5</ele>
        <time>2024-03-31T08:24:58Z</time>
      </trkpt>
      <trkpt lat="48.07715" lon="3.2392">
        <ele>183.3</ele>
        <time>2024-03-31T08:25:06Z</time>
      </trkpt>
      <trkpt lat="48.07721" lon="3.23911">
        <ele>182.8</ele>
        <time>2024-03-31T08:25:14Z</time>
      </trkpt>
      <trkpt lat="48.07728" lon="3.23899">
        <ele>182.1</ele>
        <time>2024-03-31T08:25:23Z</time>
      </trkpt>
      <trkpt lat="48.07733" lon="3.23894">
        <ele>181.7</ele>
        <time>2024-03-31T08:25:32Z</time>
      </trkpt>
      <trkpt lat="48.07736" lon="3.23897">
        <ele>181.7</ele>
        <time>2024-03-31T08:25:40Z</time>
      </trkpt>
      <trkpt lat="48.07664" lon="3.24006">
        <ele>186.1</ele>
        <time>2024-03-31T08:28:18Z</time>
      </trkpt>
      <trkpt lat="48.0766" lon="3.24017">
        <ele>186.2</ele>
        <time>2024-03-31T08:28:27Z</time>
      </trkpt>
      <trkpt lat="48.07663" lon="3.24019">
        <ele>186.1</ele>
        <time>2024-03-31T08:28:34Z</time>
      </trkpt>
      <trkpt lat="48.07666" lon="3.24019">
        <ele>186</ele>
        <time>2024-03-31T08:28:39Z</time>
      </trkpt>
      <trkpt lat="48.07674" lon="3.24018">
        <ele>185.7</ele>
        <time>2024-03-31T08:28:48Z</time>
      </trkpt>
      <trkpt lat="48.07679" lon="3.24018">
        <ele>185.6</ele>
        <time>2024-03-31T08:28:55Z</time>
      </trkpt>
      <trkpt lat="48.07685" lon="3.24014">
        <ele>185.3</ele>
        <time>2024-03-31T08:29:04Z</time>
      </trkpt>
      <trkpt lat="48.0769" lon="3.24014">
        <ele>185.2</ele>
        <time>2024-03-31T08:29:10Z</time>
      </trkpt>
      <trkpt lat="48.07696" lon="3.24014">
        <ele>185</ele>
        <time>2024-03-31T08:29:16Z</time>
      </trkpt>
      <trkpt lat="48.07701" lon="3.24013">
        <ele>184.9</ele>
        <time>2024-03-31T08:29:22Z</time>
      </trkpt>
      <trkpt lat="48.07708" lon="3.24011">
        <ele>184.7</ele>
        <time>2024-03-31T08:29:28Z</time>
      </trkpt>
      <trkpt lat="48.07713" lon="3.2401">
        <ele>184.6</ele>
        <time>2024-03-31T08:29:35Z</time>
      </trkpt>
      <trkpt lat="48.07721" lon="3.24008">
        <ele>184.3</ele>
        <time>2024-03-31T08:29:43Z</time>
      </trkpt>
      <trkpt lat="48.07728" lon="3.24006">
        <ele>184</ele>
        <time>2024-03-31T08:29:50Z</time>
      </trkpt>
      <trkpt lat="48.07736" lon="3.24004">
        <ele>183.6</ele>
        <time>2024-03-31T08:29:58Z</time>
      </trkpt>
      <trkpt lat="48.07744" lon="3.24003">
        <ele>183.3</ele>
        <time>2024-03-31T08:30:07Z</time>
      </trkpt>
      <trkpt lat="48.07749" lon="3.24005">
        <ele>183.2</ele>
        <time>2024-03-31T08:30:17Z</time>
      </trkpt>
      <trkpt lat="48.07754" lon="3.24012">
        <ele>183.3</ele>
        <time>2024-03-31T08:30:25Z</time>
      </trkpt>
      <trkpt lat="48.07761" lon="3.2402">
        <ele>183.3</ele>
        <time>2024-03-31T08:30:32Z</time>
      </trkpt>
      <trkpt lat="48.07769" lon="3.24029">
        <ele>183.3</ele>
        <time>2024-03-31T08:30:41Z</time>
      </trkpt>
      <trkpt lat="48.07773" lon="3.24035">
        <ele>183.2</ele>
        <time>2024-03-31T08:30:52Z</time>
      </trkpt>
      <trkpt lat="48.07777" lon="3.2404">
        <ele>183</ele>
        <time>2024-03-31T08:31:06Z</time>
      </trkpt>
      <trkpt lat="48.0778" lon="3.24037">
        <ele>182.9</ele>
        <time>2024-03-31T08:31:13Z</time>
      </trkpt>
      <trkpt lat="48.07779" lon="3.24033">
        <ele>183</ele>
        <time>2024-03-31T08:31:17Z</time>
      </trkpt>
      <trkpt lat="48.07776" lon="3.24029">
        <ele>183.1</ele>
        <time>2024-03-31T08:31:21Z</time>
      </trkpt>
      <trkpt lat="48.07751" lon="3.24002">
        <ele>183</ele>
        <time>2024-03-31T08:31:27Z</time>
      </trkpt>
      <trkpt lat="48.07784" lon="3.24">
        <ele>181.8</ele>
        <time>2024-03-31T08:31:54Z</time>
      </trkpt>
      <trkpt lat="48.07788" lon="3.24">
        <ele>181.6</ele>
        <time>2024-03-31T08:32:00Z</time>
      </trkpt>
      <trkpt lat="48.07789" lon="3.23999">
        <ele>181.6</ele>
        <time>2024-03-31T08:32:01Z</time>
      </trkpt>
      <trkpt lat="48.07798" lon="3.23993">
        <ele>181.3</ele>
        <time>2024-03-31T08:32:09Z</time>
      </trkpt>
      <trkpt lat="48.07806" lon="3.23989">
        <ele>181</ele>
        <time>2024-03-31T08:32:18Z</time>
      </trkpt>
      <trkpt lat="48.07814" lon="3.23987">
        <ele>180.7</ele>
        <time>2024-03-31T08:32:24Z</time>
      </trkpt>
      <trkpt lat="48.07819" lon="3.23986">
        <ele>180.5</ele>
        <time>2024-03-31T08:32:31Z</time>
      </trkpt>
      <trkpt lat="48.07824" lon="3.23985">
        <ele>180.3</ele>
        <time>2024-03-31T08:32:38Z</time>
      </trkpt>
      <trkpt lat="48.07832" lon="3.23983">
        <ele>180</ele>
        <time>2024-03-31T08:32:47Z</time>
      </trkpt>
      <trkpt lat="48.07843" lon="3.23981">
        <ele>179.7</ele>
        <time>2024-03-31T08:32:56Z</time>
      </trkpt>
      <trkpt lat="48.07851" lon="3.23978">
        <ele>179.4</ele>
        <time>2024-03-31T08:33:04Z</time>
      </trkpt>
      <trkpt lat="48.0786" lon="3.2398">
        <ele>179</ele>
        <time>2024-03-31T08:33:12Z</time>
      </trkpt>
      <trkpt lat="48.07865" lon="3.23979">
        <ele>178.9</ele>
        <time>2024-03-31T08:33:16Z</time>
      </trkpt>
      <trkpt lat="48.07876" lon="3.23974">
        <ele>178.5</ele>
        <time>2024-03-31T08:33:23Z</time>
      </trkpt>
      <trkpt lat="48.07886" lon="3.23972">
        <ele>178.1</ele>
        <time>2024-03-31T08:33:30Z</time>
      </trkpt>
      <trkpt lat="48.07894" lon="3.23969">
        <ele>177.9</ele>
        <time>2024-03-31T08:33:37Z</time>
      </trkpt>
      <trkpt lat="48.07902" lon="3.23966">
        <ele>177.8</ele>
        <time>2024-03-31T08:33:43Z</time>
      </trkpt>
      <trkpt lat="48.07909" lon="3.23965">
        <ele>177.7</ele>
        <time>2024-03-31T08:33:48Z</time>
      </trkpt>
      <trkpt lat="48.07921" lon="3.2396">
        <ele>177.6</ele>
        <time>2024-03-31T08:33:56Z</time>
      </trkpt>
      <trkpt lat="48.07928" lon="3.23959">
        <ele>177.5</ele>
        <time>2024-03-31T08:34:02Z</time>
      </trkpt>
      <trkpt lat="48.07943" lon="3.23955">
        <ele>177.4</ele>
        <time>2024-03-31T08:34:11Z</time>
      </trkpt>
      <trkpt lat="48.07951" lon="3.23952">
        <ele>177.4</ele>
        <time>2024-03-31T08:34:16Z</time>
      </trkpt>
      <trkpt lat="48.07963" lon="3.23949">
        <ele>177.7</ele>
        <time>2024-03-31T08:34:24Z</time>
      </trkpt>
      <trkpt lat="48.07969" lon="3.23947">
        <ele>177.9</ele>
        <time>2024-03-31T08:34:28Z</time>
      </trkpt>
      <trkpt lat="48.07986" lon="3.23941">
        <ele>177.9</ele>
        <time>2024-03-31T08:34:38Z</time>
      </trkpt>
      <trkpt lat="48.07987" lon="3.2394">
        <ele>177.8</ele>
        <time>2024-03-31T08:34:39Z</time>
      </trkpt>
      <trkpt lat="48.07997" lon="3.23935">
        <ele>177.7</ele>
        <time>2024-03-31T08:34:46Z</time>
      </trkpt>
      <trkpt lat="48.08005" lon="3.23933">
        <ele>177.7</ele>
        <time>2024-03-31T08:34:53Z</time>
      </trkpt>
      <trkpt lat="48.08011" lon="3.23933">
        <ele>177.8</ele>
        <time>2024-03-31T08:34:59Z</time>
      </trkpt>
      <trkpt lat="48.08021" lon="3.2393">
        <ele>177.9</ele>
        <time>2024-03-31T08:35:07Z</time>
      </trkpt>
      <trkpt lat="48.08029" lon="3.2393">
        <ele>178</ele>
        <time>2024-03-31T08:35:14Z</time>
      </trkpt>
      <trkpt lat="48.0804" lon="3.23933">
        <ele>178.3</ele>
        <time>2024-03-31T08:35:25Z</time>
      </trkpt>
      <trkpt lat="48.08096" lon="3.23895">
        <ele>179</ele>
        <time>2024-03-31T08:35:32Z</time>
      </trkpt>
      <trkpt lat="48.08044" lon="3.23952">
        <ele>178.7</ele>
        <time>2024-03-31T08:35:45Z</time>
      </trkpt>
      <trkpt lat="48.08044" lon="3.23958">
        <ele>178.8</ele>
        <time>2024-03-31T08:35:52Z</time>
      </trkpt>
      <trkpt lat="48.08044" lon="3.23965">
        <ele>178.9</ele>
        <time>2024-03-31T08:36:00Z</time>
      </trkpt>
      <trkpt lat="48.0804" lon="3.2397">
        <ele>179</ele>
        <time>2024-03-31T08:36:08Z</time>
      </trkpt>
      <trkpt lat="48.08035" lon="3.2398">
        <ele>179</ele>
        <time>2024-03-31T08:36:18Z</time>
      </trkpt>
      <trkpt lat="48.0803" lon="3.23985">
        <ele>179</ele>
        <time>2024-03-31T08:36:25Z</time>
      </trkpt>
      <trkpt lat="48.08021" lon="3.24">
        <ele>179</ele>
        <time>2024-03-31T08:36:36Z</time>
      </trkpt>
      <trkpt lat="48.08013" lon="3.24008">
        <ele>179</ele>
        <time>2024-03-31T08:36:44Z</time>
      </trkpt>
      <trkpt lat="48.08006" lon="3.24021">
        <ele>179</ele>
        <time>2024-03-31T08:36:53Z</time>
      </trkpt>
      <trkpt lat="48.08" lon="3.2403">
        <ele>179.1</ele>
        <time>2024-03-31T08:37:00Z</time>
      </trkpt>
      <trkpt lat="48.07992" lon="3.24042">
        <ele>179.4</ele>
        <time>2024-03-31T08:37:09Z</time>
      </trkpt>
      <trkpt lat="48.07988" lon="3.24051">
        <ele>179.5</ele>
        <time>2024-03-31T08:37:17Z</time>
      </trkpt>
      <trkpt lat="48.0798" lon="3.24065">
        <ele>179.3</ele>
        <time>2024-03-31T08:37:28Z</time>
      </trkpt>
      <trkpt lat="48.07977" lon="3.2408">
        <ele>179.2</ele>
        <time>2024-03-31T08:37:37Z</time>
      </trkpt>
      <trkpt lat="48.07972" lon="3.24087">
        <ele>179.1</ele>
        <time>2024-03-31T08:37:43Z</time>
      </trkpt>
      <trkpt lat="48.07969" lon="3.24089">
        <ele>179.3</ele>
        <time>2024-03-31T08:37:46Z</time>
      </trkpt>
      <trkpt lat="48.0796" lon="3.24098">
        <ele>179.7</ele>
        <time>2024-03-31T08:37:54Z</time>
      </trkpt>
      <trkpt lat="48.07953" lon="3.24109">
        <ele>180</ele>
        <time>2024-03-31T08:38:02Z</time>
      </trkpt>
      <trkpt lat="48.07947" lon="3.2412">
        <ele>180</ele>
        <time>2024-03-31T08:38:11Z</time>
      </trkpt>
      <trkpt lat="48.07953" lon="3.24124">
        <ele>180</ele>
        <time>2024-03-31T08:41:03Z</time>
      </trkpt>
      <trkpt lat="48.07955" lon="3.24123">
        <ele>180</ele>
        <time>2024-03-31T08:41:20Z</time>
      </trkpt>
      <trkpt lat="48.07956" lon="3.24123">
        <ele>180</ele>
        <time>2024-03-31T08:41:26Z</time>
      </trkpt>
      <trkpt lat="48.07959" lon="3.24108">
        <ele>179.9</ele>
        <time>2024-03-31T08:41:34Z</time>
      </trkpt>
      <trkpt lat="48.07963" lon="3.24097">
        <ele>179.7</ele>
        <time>2024-03-31T08:41:41Z</time>
      </trkpt>
      <trkpt lat="48.07969" lon="3.24086">
        <ele>179.2</ele>
        <time>2024-03-31T08:41:49Z</time>
      </trkpt>
      <trkpt lat="48.07971" lon="3.24078">
        <ele>179</ele>
        <time>2024-03-31T08:41:55Z</time>
      </trkpt>
      <trkpt lat="48.07974" lon="3.24072">
        <ele>179.1</ele>
        <time>2024-03-31T08:41:58Z</time>
      </trkpt>
      <trkpt lat="48.07975" lon="3.24065">
        <ele>179.1</ele>
        <time>2024-03-31T08:42:01Z</time>
      </trkpt>
      <trkpt lat="48.0798" lon="3.24057">
        <ele>179.3</ele>
        <time>2024-03-31T08:42:07Z</time>
      </trkpt>
      <trkpt lat="48.07983" lon="3.24053">
        <ele>179.4</ele>
        <time>2024-03-31T08:42:11Z</time>
      </trkpt>
      <trkpt lat="48.07988" lon="3.24044">
        <ele>179.3</ele>
        <time>2024-03-31T08:42:18Z</time>
      </trkpt>
      <trkpt lat="48.07994" lon="3.24032">
        <ele>179.1</ele>
        <time>2024-03-31T08:42:26Z</time>
      </trkpt>
      <trkpt lat="48.08" lon="3.24022">
        <ele>179</ele>
        <time>2024-03-31T08:42:33Z</time>
      </trkpt>
      <trkpt lat="48.08005" lon="3.24013">
        <ele>179</ele>
        <time>2024-03-31T08:42:39Z</time>
      </trkpt>
      <trkpt lat="48.08009" lon="3.24005">
        <ele>179</ele>
        <time>2024-03-31T08:42:45Z</time>
      </trkpt>
      <trkpt lat="48.08014" lon="3.23997">
        <ele>178.9</ele>
        <time>2024-03-31T08:42:52Z</time>
      </trkpt>
      <trkpt lat="48.08023" lon="3.23985">
        <ele>178.9</ele>
        <time>2024-03-31T08:43:00Z</time>
      </trkpt>
      <trkpt lat="48.08028" lon="3.23974">
        <ele>179</ele>
        <time>2024-03-31T08:43:07Z</time>
      </trkpt>
      <trkpt lat="48.08033" lon="3.23964">
        <ele>178.8</ele>
        <time>2024-03-31T08:43:13Z</time>
      </trkpt>
      <trkpt lat="48.08038" lon="3.23957">
        <ele>178.7</ele>
        <time>2024-03-31T08:43:19Z</time>
      </trkpt>
      <trkpt lat="48.0804" lon="3.23955">
        <ele>178.7</ele>
        <time>2024-03-31T08:43:21Z</time>
      </trkpt>
      <trkpt lat="48.08094" lon="3.23888">
        <ele>179</ele>
      </trkpt>
      <trkpt lat="48.08095" lon="3.23883">
        <ele>178.9</ele>
        <time>2024-03-31T09:38:52Z</time>
      </trkpt>
      <trkpt lat="48.08043" lon="3.23757">
        <ele>173.8</ele>
      </trkpt>
      <trkpt lat="48.08013" lon="3.2374">
        <ele>170.6</ele>
      </trkpt>
      <trkpt lat="48.07983" lon="3.23731">
        <ele>168.1</ele>
      </trkpt>
      <trkpt lat="48.07944" lon="3.23649">
        <ele>163.4</ele>
        <time>2024-03-31T09:38:59Z</time>
      </trkpt>
      <trkpt lat="48.0794" lon="3.2364">
        <ele>163</ele>
        <time>2024-03-31T09:39:06Z</time>
      </trkpt>
      <trkpt lat="48.07936" lon="3.23627">
        <ele>162.4</ele>
        <time>2024-03-31T09:39:13Z</time>
      </trkpt>
      <trkpt lat="48.07931" lon="3.23611">
        <ele>161.5</ele>
        <time>2024-03-31T09:39:18Z</time>
      </trkpt>
      <trkpt lat="48.07925" lon="3.23597">
        <ele>160.8</ele>
        <time>2024-03-31T09:39:26Z</time>
      </trkpt>
      <trkpt lat="48.07923" lon="3.23592">
        <ele>160.5</ele>
        <time>2024-03-31T09:39:29Z</time>
      </trkpt>
      <trkpt lat="48.07915" lon="3.23583">
        <ele>160.1</ele>
        <time>2024-03-31T09:39:38Z</time>
      </trkpt>
      <trkpt lat="48.07909" lon="3.23573">
        <ele>160.1</ele>
        <time>2024-03-31T09:39:46Z</time>
      </trkpt>
      <trkpt lat="48.07905" lon="3.23562">
        <ele>159.7</ele>
        <time>2024-03-31T09:39:54Z</time>
      </trkpt>
      <trkpt lat="48.07905" lon="3.23561">
        <ele>159.7</ele>
        <time>2024-03-31T09:39:55Z</time>
      </trkpt>
      <trkpt lat="48.079" lon="3.23548">
        <ele>159.2</ele>
        <time>2024-03-31T09:40:04Z</time>
      </trkpt>
      <trkpt lat="48.07896" lon="3.23537">
        <ele>158.6</ele>
        <time>2024-03-31T09:40:11Z</time>
      </trkpt>
      <trkpt lat="48.07892" lon="3.23527">
        <ele>158</ele>
        <time>2024-03-31T09:40:18Z</time>
      </trkpt>
      <trkpt lat="48.07887" lon="3.23518">
        <ele>157.8</ele>
        <time>2024-03-31T09:40:25Z</time>
      </trkpt>
      <trkpt lat="48.07882" lon="3.2351">
        <ele>157.7</ele>
        <time>2024-03-31T09:40:30Z</time>
      </trkpt>
      <trkpt lat="48.07878" lon="3.23501">
        <ele>157.4</ele>
        <time>2024-03-31T09:40:35Z</time>
      </trkpt>
      <trkpt lat="48.07873" lon="3.23485">
        <ele>156.4</ele>
        <time>2024-03-31T09:40:44Z</time>
      </trkpt>
      <trkpt lat="48.07869" lon="3.23472">
        <ele>155.3</ele>
        <time>2024-03-31T09:40:50Z</time>
      </trkpt>
      <trkpt lat="48.07865" lon="3.23455">
        <ele>154</ele>
        <time>2024-03-31T09:40:58Z</time>
      </trkpt>
      <trkpt lat="48.07862" lon="3.23449">
        <ele>153.4</ele>
        <time>2024-03-31T09:41:02Z</time>
      </trkpt>
      <trkpt lat="48.07855" lon="3.23436">
        <ele>152.8</ele>
        <time>2024-03-31T09:41:11Z</time>
      </trkpt>
      <trkpt lat="48.07849" lon="3.23427">
        <ele>152.3</ele>
        <time>2024-03-31T09:41:18Z</time>
      </trkpt>
      <trkpt lat="48.07848" lon="3.23426">
        <ele>152.2</ele>
        <time>2024-03-31T09:41:19Z</time>
      </trkpt>
      <trkpt lat="48.07845" lon="3.23417">
        <ele>151.4</ele>
        <time>2024-03-31T09:41:25Z</time>
      </trkpt>
      <trkpt lat="48.07841" lon="3.23406">
        <ele>150.6</ele>
        <time>2024-03-31T09:41:32Z</time>
      </trkpt>
      <trkpt lat="48.0784" lon="3.23403">
        <ele>150.4</ele>
        <time>2024-03-31T09:41:35Z</time>
      </trkpt>
      <trkpt lat="48.07838" lon="3.23401">
        <ele>150.1</ele>
        <time>2024-03-31T09:41:38Z</time>
      </trkpt>
      <trkpt lat="48.07828" lon="3.23396">
        <ele>149.5</ele>
        <time>2024-03-31T09:41:47Z</time>
      </trkpt>
      <trkpt lat="48.07828" lon="3.2338">
        <ele>148.7</ele>
        <time>2024-03-31T09:41:55Z</time>
      </trkpt>
      <trkpt lat="48.07828" lon="3.23376">
        <ele>148.6</ele>
        <time>2024-03-31T09:42:08Z</time>
      </trkpt>
      <trkpt lat="48.07825" lon="3.23356">
        <ele>148.2</ele>
        <time>2024-03-31T09:42:15Z</time>
      </trkpt>
      <trkpt lat="48.07826" lon="3.23348">
        <ele>147.9</ele>
        <time>2024-03-31T09:42:24Z</time>
      </trkpt>
      <trkpt lat="48.07826" lon="3.2335">
        <ele>148</ele>
        <time>2024-03-31T09:42:40Z</time>
      </trkpt>
      <trkpt lat="48.07832" lon="3.23348">
        <ele>147.6</ele>
        <time>2024-03-31T09:43:03Z</time>
      </trkpt>
      <trkpt lat="48.07827" lon="3.23347">
        <ele>147.8</ele>
        <time>2024-03-31T09:43:16Z</time>
      </trkpt>
      <trkpt lat="48.07823" lon="3.23347">
        <ele>148.1</ele>
        <time>2024-03-31T09:43:33Z</time>
      </trkpt>
      <trkpt lat="48.07824" lon="3.23341">
        <ele>147.9</ele>
        <time>2024-03-31T09:43:39Z</time>
      </trkpt>
      <trkpt lat="48.07822" lon="3.23336">
        <ele>147.9</ele>
        <time>2024-03-31T09:43:46Z</time>
      </trkpt>
      <trkpt lat="48.07824" lon="3.23332">
        <ele>147.6</ele>
        <time>2024-03-31T09:43:52Z</time>
      </trkpt>
      <trkpt lat="48.07827" lon="3.23329">
        <ele>147.3</ele>
        <time>2024-03-31T09:44:02Z</time>
      </trkpt>
      <trkpt lat="48.07828" lon="3.23322">
        <ele>147</ele>
        <time>2024-03-31T09:44:12Z</time>
      </trkpt>
      <trkpt lat="48.0783" lon="3.23313">
        <ele>146.5</ele>
        <time>2024-03-31T09:44:20Z</time>
      </trkpt>
      <trkpt lat="48.07831" lon="3.23306">
        <ele>146.2</ele>
        <time>2024-03-31T09:44:25Z</time>
      </trkpt>
      <trkpt lat="48.07834" lon="3.23294">
        <ele>145.6</ele>
        <time>2024-03-31T09:44:32Z</time>
      </trkpt>
      <trkpt lat="48.07837" lon="3.23283">
        <ele>145.3</ele>
        <time>2024-03-31T09:44:39Z</time>
      </trkpt>
      <trkpt lat="48.07839" lon="3.23279">
        <ele>145.3</ele>
        <time>2024-03-31T09:44:43Z</time>
      </trkpt>
      <trkpt lat="48.07842" lon="3.23263">
        <ele>144.6</ele>
        <time>2024-03-31T09:44:51Z</time>
      </trkpt>
      <trkpt lat="48.07846" lon="3.23251">
        <ele>144.1</ele>
        <time>2024-03-31T09:44:58Z</time>
      </trkpt>
      <trkpt lat="48.0785" lon="3.2324">
        <ele>143.8</ele>
        <time>2024-03-31T09:45:06Z</time>
      </trkpt>
      <trkpt lat="48.07856" lon="3.23229">
        <ele>143.4</ele>
        <time>2024-03-31T09:45:13Z</time>
      </trkpt>
      <trkpt lat="48.07856" lon="3.23206">
        <ele>142.7</ele>
        <time>2024-03-31T09:45:22Z</time>
      </trkpt>
      <trkpt lat="48.07857" lon="3.23194">
        <ele>142.3</ele>
        <time>2024-03-31T09:45:28Z</time>
      </trkpt>
      <trkpt lat="48.07858" lon="3.23181">
        <ele>141.7</ele>
        <time>2024-03-31T09:45:35Z</time>
      </trkpt>
      <trkpt lat="48.07861" lon="3.23175">
        <ele>141.3</ele>
        <time>2024-03-31T09:45:41Z</time>
      </trkpt>
      <trkpt lat="48.07862" lon="3.2317">
        <ele>141.2</ele>
        <time>2024-03-31T09:45:45Z</time>
      </trkpt>
      <trkpt lat="48.07862" lon="3.23162">
        <ele>141</ele>
        <time>2024-03-31T09:45:49Z</time>
      </trkpt>
      <trkpt lat="48.07864" lon="3.23149">
        <ele>141</ele>
        <time>2024-03-31T09:45:56Z</time>
      </trkpt>
      <trkpt lat="48.07867" lon="3.23131">
        <ele>140.5</ele>
        <time>2024-03-31T09:46:03Z</time>
      </trkpt>
      <trkpt lat="48.07867" lon="3.23112">
        <ele>139.8</ele>
        <time>2024-03-31T09:46:10Z</time>
      </trkpt>
      <trkpt lat="48.07868" lon="3.23102">
        <ele>139.4</ele>
        <time>2024-03-31T09:46:18Z</time>
      </trkpt>
      <trkpt lat="48.07872" lon="3.23086">
        <ele>138.7</ele>
        <time>2024-03-31T09:46:27Z</time>
      </trkpt>
      <trkpt lat="48.07877" lon="3.23095">
        <ele>138.8</ele>
        <time>2024-03-31T09:46:34Z</time>
      </trkpt>
      <trkpt lat="48.07885" lon="3.23095">
        <ele>138.6</ele>
        <time>2024-03-31T09:46:40Z</time>
      </trkpt>
      <trkpt lat="48.0789" lon="3.2309">
        <ele>138.3</ele>
        <time>2024-03-31T09:46:47Z</time>
      </trkpt>
      <trkpt lat="48.07898" lon="3.2309">
        <ele>139</ele>
        <time>2024-03-31T09:47:24Z</time>
      </trkpt>
      <trkpt lat="48.07893" lon="3.23095">
        <ele>138.8</ele>
        <time>2024-03-31T09:47:50Z</time>
      </trkpt>
      <trkpt lat="48.07882" lon="3.23092">
        <ele>138.6</ele>
        <time>2024-03-31T09:47:59Z</time>
      </trkpt>
      <trkpt lat="48.07878" lon="3.23087">
        <ele>138.5</ele>
        <time>2024-03-31T09:48:05Z</time>
      </trkpt>
      <trkpt lat="48.07873" lon="3.23079">
        <ele>138.4</ele>
        <time>2024-03-31T09:48:11Z</time>
      </trkpt>
      <trkpt lat="48.07872" lon="3.23073">
        <ele>138.2</ele>
        <time>2024-03-31T09:48:14Z</time>
      </trkpt>
      <trkpt lat="48.07864" lon="3.23055">
        <ele>137.9</ele>
        <time>2024-03-31T09:48:23Z</time>
      </trkpt>
      <trkpt lat="48.07863" lon="3.23054">
        <ele>137.9</ele>
        <time>2024-03-31T09:48:25Z</time>
      </trkpt>
      <trkpt lat="48.07857" lon="3.23028">
        <ele>138.4</ele>
        <time>2024-03-31T09:48:35Z</time>
      </trkpt>
      <trkpt lat="48.07856" lon="3.23025">
        <ele>138.5</ele>
        <time>2024-03-31T09:48:37Z</time>
      </trkpt>
      <trkpt lat="48.07853" lon="3.23009">
        <ele>138.2</ele>
        <time>2024-03-31T09:48:44Z</time>
      </trkpt>
      <trkpt lat="48.07853" lon="3.23007">
        <ele>138.1</ele>
        <time>2024-03-31T09:48:45Z</time>
      </trkpt>
      <trkpt lat="48.07852" lon="3.23">
        <ele>138</ele>
        <time>2024-03-31T09:48:48Z</time>
      </trkpt>
      <trkpt lat="48.07845" lon="3.2298">
        <ele>137.3</ele>
        <time>2024-03-31T09:48:58Z</time>
      </trkpt>
      <trkpt lat="48.07841" lon="3.22966">
        <ele>136.8</ele>
        <time>2024-03-31T09:49:04Z</time>
      </trkpt>
      <trkpt lat="48.07838" lon="3.22956">
        <ele>136.4</ele>
        <time>2024-03-31T09:49:08Z</time>
      </trkpt>
      <trkpt lat="48.07828" lon="3.22935">
        <ele>135.6</ele>
        <time>2024-03-31T09:49:18Z</time>
      </trkpt>
      <trkpt lat="48.07825" lon="3.22925">
        <ele>135</ele>
        <time>2024-03-31T09:49:23Z</time>
      </trkpt>
      <trkpt lat="48.07823" lon="3.2291">
        <ele>133.8</ele>
        <time>2024-03-31T09:49:32Z</time>
      </trkpt>
      <trkpt lat="48.07818" lon="3.22898">
        <ele>132.8</ele>
        <time>2024-03-31T09:49:40Z</time>
      </trkpt>
      <trkpt lat="48.07813" lon="3.22892">
        <ele>132.3</ele>
        <time>2024-03-31T09:49:47Z</time>
      </trkpt>
      <trkpt lat="48.07805" lon="3.22885">
        <ele>131.9</ele>
        <time>2024-03-31T09:49:56Z</time>
      </trkpt>
      <trkpt lat="48.07804" lon="3.22885">
        <ele>132</ele>
        <time>2024-03-31T09:49:58Z</time>
      </trkpt>
      <trkpt lat="48.07797" lon="3.22887">
        <ele>132.9</ele>
        <time>2024-03-31T09:50:06Z</time>
      </trkpt>
      <trkpt lat="48.07794" lon="3.22891">
        <ele>133.4</ele>
        <time>2024-03-31T09:50:12Z</time>
      </trkpt>
      <trkpt lat="48.07786" lon="3.22897">
        <ele>134.8</ele>
        <time>2024-03-31T09:50:21Z</time>
      </trkpt>
      <trkpt lat="48.0778" lon="3.229">
        <ele>135.6</ele>
        <time>2024-03-31T09:50:27Z</time>
      </trkpt>
      <trkpt lat="48.07771" lon="3.22906">
        <ele>136.8</ele>
        <time>2024-03-31T09:50:34Z</time>
      </trkpt>
      <trkpt lat="48.07761" lon="3.22908">
        <ele>137.8</ele>
        <time>2024-03-31T09:50:43Z</time>
      </trkpt>
      <trkpt lat="48.07755" lon="3.22912">
        <ele>138.4</ele>
        <time>2024-03-31T09:50:55Z</time>
      </trkpt>
      <trkpt lat="48.07751" lon="3.22917">
        <ele>139</ele>
        <time>2024-03-31T09:51:14Z</time>
      </trkpt>
      <trkpt lat="48.07753" lon="3.22909">
        <ele>138.5</ele>
        <time>2024-03-31T09:51:28Z</time>
      </trkpt>
      <trkpt lat="48.07752" lon="3.22905">
        <ele>138.4</ele>
        <time>2024-03-31T09:51:41Z</time>
      </trkpt>
      <trkpt lat="48.07751" lon="3.22901">
        <ele>138.3</ele>
        <time>2024-03-31T09:52:08Z</time>
      </trkpt>
      <trkpt lat="48.07751" lon="3.22905">
        <ele>138.5</ele>
        <time>2024-03-31T09:52:23Z</time>
      </trkpt>
      <trkpt lat="48.07742" lon="3.22899">
        <ele>139.4</ele>
        <time>2024-03-31T09:52:51Z</time>
      </trkpt>
      <trkpt lat="48.07735" lon="3.2289">
        <ele>140.2</ele>
        <time>2024-03-31T09:53:00Z</time>
      </trkpt>
      <trkpt lat="48.07732" lon="3.2289">
        <ele>140.6</ele>
        <time>2024-03-31T09:53:07Z</time>
      </trkpt>
      <trkpt lat="48.07726" lon="3.22883">
        <ele>141.7</ele>
        <time>2024-03-31T09:53:15Z</time>
      </trkpt>
      <trkpt lat="48.07722" lon="3.2288">
        <ele>142.4</ele>
        <time>2024-03-31T09:53:24Z</time>
      </trkpt>
      <trkpt lat="48.07718" lon="3.22873">
        <ele>143.3</ele>
        <time>2024-03-31T09:53:31Z</time>
      </trkpt>
      <trkpt lat="48.07712" lon="3.22869">
        <ele>144.5</ele>
        <time>2024-03-31T09:53:38Z</time>
      </trkpt>
      <trkpt lat="48.07707" lon="3.22863">
        <ele>145.6</ele>
        <time>2024-03-31T09:53:46Z</time>
      </trkpt>
      <trkpt lat="48.07701" lon="3.22856">
        <ele>147</ele>
        <time>2024-03-31T09:53:55Z</time>
      </trkpt>
      <trkpt lat="48.07693" lon="3.22851">
        <ele>148.5</ele>
        <time>2024-03-31T09:54:05Z</time>
      </trkpt>
      <trkpt lat="48.0768" lon="3.22844">
        <ele>150.2</ele>
        <time>2024-03-31T09:54:15Z</time>
      </trkpt>
      <trkpt lat="48.07669" lon="3.22835">
        <ele>151.7</ele>
        <time>2024-03-31T09:54:23Z</time>
      </trkpt>
      <trkpt lat="48.07662" lon="3.2283">
        <ele>152.8</ele>
        <time>2024-03-31T09:54:31Z</time>
      </trkpt>
      <trkpt lat="48.0766" lon="3.22834">
        <ele>152.9</ele>
        <time>2024-03-31T09:54:35Z</time>
      </trkpt>
      <trkpt lat="48.07651" lon="3.22839">
        <ele>154.2</ele>
        <time>2024-03-31T09:54:44Z</time>
      </trkpt>
      <trkpt lat="48.07645" lon="3.22844">
        <ele>155</ele>
        <time>2024-03-31T09:54:50Z</time>
      </trkpt>
      <trkpt lat="48.07638" lon="3.22847">
        <ele>156.1</ele>
        <time>2024-03-31T09:54:56Z</time>
      </trkpt>
      <trkpt lat="48.0763" lon="3.22854">
        <ele>157</ele>
        <time>2024-03-31T09:55:04Z</time>
      </trkpt>
      <trkpt lat="48.07624" lon="3.22854">
        <ele>157.6</ele>
        <time>2024-03-31T09:55:12Z</time>
      </trkpt>
      <trkpt lat="48.07623" lon="3.22855">
        <ele>157.7</ele>
        <time>2024-03-31T09:55:14Z</time>
      </trkpt>
      <trkpt lat="48.07615" lon="3.22859">
        <ele>158.6</ele>
        <time>2024-03-31T09:55:22Z</time>
      </trkpt>
      <trkpt lat="48.0761" lon="3.22866">
        <ele>159.3</ele>
        <time>2024-03-31T09:55:31Z</time>
      </trkpt>
      <trkpt lat="48.07607" lon="3.22867">
        <ele>159.5</ele>
        <time>2024-03-31T09:55:35Z</time>
      </trkpt>
      <trkpt lat="48.07599" lon="3.22865">
        <ele>160</ele>
        <time>2024-03-31T09:55:43Z</time>
      </trkpt>
      <trkpt lat="48.07594" lon="3.22861">
        <ele>160.2</ele>
        <time>2024-03-31T09:55:48Z</time>
      </trkpt>
      <trkpt lat="48.07585" lon="3.22858">
        <ele>160.9</ele>
        <time>2024-03-31T09:55:56Z</time>
      </trkpt>
      <trkpt lat="48.07574" lon="3.22855">
        <ele>161.5</ele>
        <time>2024-03-31T09:56:03Z</time>
      </trkpt>
      <trkpt lat="48.07572" lon="3.22872">
        <ele>162.2</ele>
        <time>2024-03-31T09:56:27Z</time>
      </trkpt>
      <trkpt lat="48.07569" lon="3.2288">
        <ele>162.7</ele>
        <time>2024-03-31T09:56:37Z</time>
      </trkpt>
      <trkpt lat="48.07567" lon="3.22885">
        <ele>163</ele>
        <time>2024-03-31T09:56:45Z</time>
      </trkpt>
      <trkpt lat="48.07563" lon="3.2289">
        <ele>163.5</ele>
        <time>2024-03-31T09:56:52Z</time>
      </trkpt>
      <trkpt lat="48.07564" lon="3.22893">
        <ele>163.5</ele>
        <time>2024-03-31T09:57:05Z</time>
      </trkpt>
      <trkpt lat="48.07567" lon="3.22891">
        <ele>163.3</ele>
        <time>2024-03-31T09:57:16Z</time>
      </trkpt>
      <trkpt lat="48.07569" lon="3.22886">
        <ele>162.9</ele>
        <time>2024-03-31T09:57:26Z</time>
      </trkpt>
      <trkpt lat="48.07572" lon="3.22881">
        <ele>162.5</ele>
        <time>2024-03-31T09:57:34Z</time>
      </trkpt>
      <trkpt lat="48.07574" lon="3.22878">
        <ele>162.3</ele>
        <time>2024-03-31T09:57:38Z</time>
      </trkpt>
      <trkpt lat="48.07577" lon="3.22859">
        <ele>161.4</ele>
        <time>2024-03-31T09:57:46Z</time>
      </trkpt>
      <trkpt lat="48.07576" lon="3.22849">
        <ele>161.3</ele>
        <time>2024-03-31T09:57:59Z</time>
      </trkpt>
      <trkpt lat="48.07565" lon="3.22844">
        <ele>161.5</ele>
        <time>2024-03-31T09:58:06Z</time>
      </trkpt>
      <trkpt lat="48.07554" lon="3.2284">
        <ele>161.5</ele>
        <time>2024-03-31T09:58:14Z</time>
      </trkpt>
      <trkpt lat="48.07544" lon="3.22835">
        <ele>161.1</ele>
        <time>2024-03-31T09:58:22Z</time>
      </trkpt>
      <trkpt lat="48.07532" lon="3.22825">
        <ele>160.4</ele>
        <time>2024-03-31T09:58:31Z</time>
      </trkpt>
      <trkpt lat="48.07522" lon="3.2282">
        <ele>160</ele>
        <time>2024-03-31T09:58:39Z</time>
      </trkpt>
      <trkpt lat="48.07521" lon="3.2282">
        <ele>160</ele>
        <time>2024-03-31T09:58:40Z</time>
      </trkpt>
      <trkpt lat="48.07511" lon="3.22813">
        <ele>159.5</ele>
        <time>2024-03-31T09:58:48Z</time>
      </trkpt>
      <trkpt lat="48.07508" lon="3.2281">
        <ele>159.3</ele>
        <time>2024-03-31T09:58:51Z</time>
      </trkpt>
      <trkpt lat="48.07501" lon="3.22818">
        <ele>159.9</ele>
        <time>2024-03-31T10:23:37Z</time>
      </trkpt>
      <trkpt lat="48.075" lon="3.22833">
        <ele>161</ele>
        <time>2024-03-31T10:23:45Z</time>
      </trkpt>
      <trkpt lat="48.07496" lon="3.22847">
        <ele>162.4</ele>
        <time>2024-03-31T10:23:52Z</time>
      </trkpt>
      <trkpt lat="48.07492" lon="3.22857">
        <ele>163.3</ele>
        <time>2024-03-31T10:23:58Z</time>
      </trkpt>
      <trkpt lat="48.07486" lon="3.22871">
        <ele>163.7</ele>
        <time>2024-03-31T10:24:06Z</time>
      </trkpt>
      <trkpt lat="48.07483" lon="3.22882">
        <ele>163.8</ele>
        <time>2024-03-31T10:24:13Z</time>
      </trkpt>
      <trkpt lat="48.07482" lon="3.22884">
        <ele>163.9</ele>
        <time>2024-03-31T10:24:14Z</time>
      </trkpt>
      <trkpt lat="48.07476" lon="3.229">
        <ele>164.8</ele>
        <time>2024-03-31T10:24:22Z</time>
      </trkpt>
      <trkpt lat="48.07476" lon="3.22902">
        <ele>164.9</ele>
        <time>2024-03-31T10:24:23Z</time>
      </trkpt>
      <trkpt lat="48.07475" lon="3.22905">
        <ele>165.2</ele>
        <time>2024-03-31T10:24:25Z</time>
      </trkpt>
      <trkpt lat="48.07474" lon="3.22918">
        <ele>166</ele>
        <time>2024-03-31T10:24:34Z</time>
      </trkpt>
      <trkpt lat="48.07472" lon="3.22926">
        <ele>166.3</ele>
        <time>2024-03-31T10:24:39Z</time>
      </trkpt>
      <trkpt lat="48.07472" lon="3.22929">
        <ele>166.4</ele>
        <time>2024-03-31T10:24:41Z</time>
      </trkpt>
      <trkpt lat="48.07465" lon="3.22942">
        <ele>166.9</ele>
        <time>2024-03-31T10:24:50Z</time>
      </trkpt>
      <trkpt lat="48.07464" lon="3.22959">
        <ele>167.5</ele>
        <time>2024-03-31T10:24:58Z</time>
      </trkpt>
      <trkpt lat="48.07461" lon="3.22965">
        <ele>167.7</ele>
        <time>2024-03-31T10:25:03Z</time>
      </trkpt>
      <trkpt lat="48.07452" lon="3.22982">
        <ele>168.6</ele>
        <time>2024-03-31T10:25:12Z</time>
      </trkpt>
      <trkpt lat="48.07447" lon="3.23003">
        <ele>169.9</ele>
        <time>2024-03-31T10:25:20Z</time>
      </trkpt>
      <trkpt lat="48.07445" lon="3.23018">
        <ele>170</ele>
        <time>2024-03-31T10:25:27Z</time>
      </trkpt>
      <trkpt lat="48.07447" lon="3.23029">
        <ele>170</ele>
        <time>2024-03-31T10:25:34Z</time>
      </trkpt>
      <trkpt lat="48.07448" lon="3.23037">
        <ele>170.2</ele>
        <time>2024-03-31T10:25:45Z</time>
      </trkpt>
      <trkpt lat="48.07446" lon="3.23041">
        <ele>170.4</ele>
        <time>2024-03-31T10:25:52Z</time>
      </trkpt>
      <trkpt lat="48.07443" lon="3.23045">
        <ele>170.7</ele>
        <time>2024-03-31T10:25:55Z</time>
      </trkpt>
      <trkpt lat="48.07443" lon="3.23052">
        <ele>170.9</ele>
        <time>2024-03-31T10:25:59Z</time>
      </trkpt>
      <trkpt lat="48.07439" lon="3.23065">
        <ele>171.3</ele>
        <time>2024-03-31T10:26:05Z</time>
      </trkpt>
      <trkpt lat="48.07434" lon="3.2308">
        <ele>171.7</ele>
        <time>2024-03-31T10:26:13Z</time>
      </trkpt>
      <trkpt lat="48.07431" lon="3.23092">
        <ele>172.4</ele>
        <time>2024-03-31T10:26:21Z</time>
      </trkpt>
      <trkpt lat="48.07429" lon="3.23098">
        <ele>172.9</ele>
        <time>2024-03-31T10:26:25Z</time>
      </trkpt>
      <trkpt lat="48.07428" lon="3.23116">
        <ele>173.8</ele>
        <time>2024-03-31T10:26:33Z</time>
      </trkpt>
      <trkpt lat="48.07425" lon="3.2313">
        <ele>174.4</ele>
        <time>2024-03-31T10:26:41Z</time>
      </trkpt>
      <trkpt lat="48.07423" lon="3.23149">
        <ele>175.1</ele>
        <time>2024-03-31T10:26:50Z</time>
      </trkpt>
      <trkpt lat="48.07423" lon="3.23155">
        <ele>175.4</ele>
        <time>2024-03-31T10:26:53Z</time>
      </trkpt>
      <trkpt lat="48.07423" lon="3.23159">
        <ele>175.5</ele>
        <time>2024-03-31T10:26:55Z</time>
      </trkpt>
      <trkpt lat="48.07418" lon="3.23173">
        <ele>176.2</ele>
        <time>2024-03-31T10:27:03Z</time>
      </trkpt>
      <trkpt lat="48.07415" lon="3.23186">
        <ele>176.8</ele>
        <time>2024-03-31T10:27:10Z</time>
      </trkpt>
      <trkpt lat="48.07413" lon="3.23196">
        <ele>177.2</ele>
        <time>2024-03-31T10:27:15Z</time>
      </trkpt>
      <trkpt lat="48.0741" lon="3.23209">
        <ele>177.8</ele>
        <time>2024-03-31T10:27:23Z</time>
      </trkpt>
      <trkpt lat="48.07406" lon="3.23219">
        <ele>178.3</ele>
        <time>2024-03-31T10:27:30Z</time>
      </trkpt>
      <trkpt lat="48.07405" lon="3.23221">
        <ele>178.4</ele>
        <time>2024-03-31T10:27:31Z</time>
      </trkpt>
      <trkpt lat="48.07401" lon="3.23234">
        <ele>178.8</ele>
        <time>2024-03-31T10:27:39Z</time>
      </trkpt>
      <trkpt lat="48.07398" lon="3.23236">
        <ele>179</ele>
        <time>2024-03-31T10:27:46Z</time>
      </trkpt>
      <trkpt lat="48.07395" lon="3.23242">
        <ele>179.3</ele>
        <time>2024-03-31T10:27:58Z</time>
      </trkpt>
      <trkpt lat="48.07395" lon="3.23244">
        <ele>179.4</ele>
        <time>2024-03-31T10:27:59Z</time>
      </trkpt>
      <trkpt lat="48.07395" lon="3.2325">
        <ele>179.6</ele>
        <time>2024-03-31T10:29:19Z</time>
      </trkpt>
      <trkpt lat="48.07396" lon="3.23276">
        <ele>180.4</ele>
        <time>2024-03-31T10:29:48Z</time>
      </trkpt>
      <trkpt lat="48.07393" lon="3.23285">
        <ele>181</ele>
        <time>2024-03-31T10:29:53Z</time>
      </trkpt>
      <trkpt lat="48.07389" lon="3.2329">
        <ele>181.4</ele>
        <time>2024-03-31T10:29:57Z</time>
      </trkpt>
      <trkpt lat="48.0738" lon="3.23301">
        <ele>182.5</ele>
        <time>2024-03-31T10:30:06Z</time>
      </trkpt>
      <trkpt lat="48.07377" lon="3.23312">
        <ele>183.1</ele>
        <time>2024-03-31T10:30:12Z</time>
      </trkpt>
      <trkpt lat="48.07373" lon="3.23324">
        <ele>183.8</ele>
        <time>2024-03-31T10:30:18Z</time>
      </trkpt>
      <trkpt lat="48.07363" lon="3.2334">
        <ele>185.1</ele>
        <time>2024-03-31T10:30:28Z</time>
      </trkpt>
      <trkpt lat="48.07359" lon="3.23346">
        <ele>185.6</ele>
        <time>2024-03-31T10:30:35Z</time>
      </trkpt>
      <trkpt lat="48.07359" lon="3.23361">
        <ele>186.1</ele>
        <time>2024-03-31T10:30:44Z</time>
      </trkpt>
      <trkpt lat="48.0736" lon="3.23364">
        <ele>186.3</ele>
        <time>2024-03-31T10:30:45Z</time>
      </trkpt>
      <trkpt lat="48.07358" lon="3.2337">
        <ele>186.8</ele>
        <time>2024-03-31T10:30:48Z</time>
      </trkpt>
      <trkpt lat="48.07356" lon="3.23376">
        <ele>187.3</ele>
        <time>2024-03-31T10:30:51Z</time>
      </trkpt>
      <trkpt lat="48.0735" lon="3.23392">
        <ele>188.4</ele>
        <time>2024-03-31T10:31:00Z</time>
      </trkpt>
      <trkpt lat="48.07348" lon="3.23409">
        <ele>188.8</ele>
        <time>2024-03-31T10:31:08Z</time>
      </trkpt>
      <trkpt lat="48.07348" lon="3.23425">
        <ele>189.1</ele>
        <time>2024-03-31T10:31:16Z</time>
      </trkpt>
      <trkpt lat="48.07345" lon="3.23439">
        <ele>189.5</ele>
        <time>2024-03-31T10:31:24Z</time>
      </trkpt>
      <trkpt lat="48.07345" lon="3.23446">
        <ele>189.6</ele>
        <time>2024-03-31T10:31:28Z</time>
      </trkpt>
      <trkpt lat="48.07344" lon="3.23449">
        <ele>189.7</ele>
        <time>2024-03-31T10:31:30Z</time>
      </trkpt>
      <trkpt lat="48.07343" lon="3.23452">
        <ele>189.8</ele>
        <time>2024-03-31T10:31:32Z</time>
      </trkpt>
      <trkpt lat="48.07341" lon="3.23473">
        <ele>190.5</ele>
        <time>2024-03-31T10:31:40Z</time>
      </trkpt>
      <trkpt lat="48.0734" lon="3.23481">
        <ele>190.6</ele>
        <time>2024-03-31T10:31:43Z</time>
      </trkpt>
      <trkpt lat="48.07341" lon="3.23497">
        <ele>190.7</ele>
        <time>2024-03-31T10:31:50Z</time>
      </trkpt>
      <trkpt lat="48.07338" lon="3.23506">
        <ele>190.8</ele>
        <time>2024-03-31T10:31:55Z</time>
      </trkpt>
      <trkpt lat="48.07333" lon="3.2352">
        <ele>191</ele>
        <time>2024-03-31T10:32:04Z</time>
      </trkpt>
      <trkpt lat="48.07332" lon="3.23524">
        <ele>191</ele>
        <time>2024-03-31T10:32:06Z</time>
      </trkpt>
      <trkpt lat="48.07323" lon="3.23537">
        <ele>191.4</ele>
        <time>2024-03-31T10:32:15Z</time>
      </trkpt>
      <trkpt lat="48.07319" lon="3.23556">
        <ele>191.5</ele>
        <time>2024-03-31T10:32:24Z</time>
      </trkpt>
      <trkpt lat="48.0732" lon="3.2357">
        <ele>191.5</ele>
        <time>2024-03-31T10:32:30Z</time>
      </trkpt>
      <trkpt lat="48.07328" lon="3.23584">
        <ele>191.2</ele>
        <time>2024-03-31T10:32:37Z</time>
      </trkpt>
      <trkpt lat="48.07335" lon="3.23594">
        <ele>191.4</ele>
        <time>2024-03-31T10:32:46Z</time>
      </trkpt>
      <trkpt lat="48.07337" lon="3.23598">
        <ele>191.5</ele>
        <time>2024-03-31T10:32:54Z</time>
      </trkpt>
      <trkpt lat="48.07341" lon="3.23593">
        <ele>191.3</ele>
        <time>2024-03-31T10:33:01Z</time>
      </trkpt>
      <trkpt lat="48.07341" lon="3.23593">
        <ele>191.3</ele>
        <time>2024-03-31T10:33:10Z</time>
      </trkpt>
      <trkpt lat="48.07336" lon="3.23592">
        <ele>191.3</ele>
        <time>2024-03-31T10:33:20Z</time>
      </trkpt>
      <trkpt lat="48.07341" lon="3.23593">
        <ele>191.3</ele>
        <time>2024-03-31T10:33:33Z</time>
      </trkpt>
      <trkpt lat="48.07342" lon="3.23593">
        <ele>191.2</ele>
        <time>2024-03-31T10:33:45Z</time>
      </trkpt>
      <trkpt lat="48.07336" lon="3.23598">
        <ele>191.5</ele>
      </trkpt>
      <trkpt lat="48.0733" lon="3.23592">
        <ele>191.4</ele>
        <time>2024-03-31T10:34:10Z</time>
      </trkpt>
      <trkpt lat="48.07315" lon="3.23608">
        <ele>192</ele>
        <time>2024-03-31T10:34:18Z</time>
      </trkpt>
      <trkpt lat="48.0731" lon="3.23613">
        <ele>191.9</ele>
        <time>2024-03-31T10:34:24Z</time>
      </trkpt>
      <trkpt lat="48.07302" lon="3.23632">
        <ele>191.2</ele>
        <time>2024-03-31T10:34:33Z</time>
      </trkpt>
      <trkpt lat="48.07291" lon="3.23648">
        <ele>190.8</ele>
        <time>2024-03-31T10:34:43Z</time>
      </trkpt>
      <trkpt lat="48.07285" lon="3.23655">
        <ele>190.6</ele>
        <time>2024-03-31T10:34:49Z</time>
      </trkpt>
      <trkpt lat="48.07278" lon="3.23671">
        <ele>189.9</ele>
        <time>2024-03-31T10:34:58Z</time>
      </trkpt>
      <trkpt lat="48.07276" lon="3.23673">
        <ele>189.6</ele>
        <time>2024-03-31T10:35:00Z</time>
      </trkpt>
      <trkpt lat="48.07274" lon="3.23677">
        <ele>189.4</ele>
        <time>2024-03-31T10:35:02Z</time>
      </trkpt>
      <trkpt lat="48.07267" lon="3.23699">
        <ele>188.1</ele>
        <time>2024-03-31T10:35:13Z</time>
      </trkpt>
      <trkpt lat="48.07265" lon="3.23704">
        <ele>187.7</ele>
        <time>2024-03-31T10:35:17Z</time>
      </trkpt>
      <trkpt lat="48.07257" lon="3.23715">
        <ele>186.8</ele>
        <time>2024-03-31T10:35:25Z</time>
      </trkpt>
      <trkpt lat="48.07248" lon="3.23734">
        <ele>185.5</ele>
        <time>2024-03-31T10:35:34Z</time>
      </trkpt>
      <trkpt lat="48.07241" lon="3.23746">
        <ele>184.8</ele>
        <time>2024-03-31T10:35:43Z</time>
      </trkpt>
      <trkpt lat="48.07228" lon="3.23764">
        <ele>183.8</ele>
        <time>2024-03-31T10:35:53Z</time>
      </trkpt>
      <trkpt lat="48.07224" lon="3.23773">
        <ele>183.3</ele>
        <time>2024-03-31T10:36:01Z</time>
      </trkpt>
      <trkpt lat="48.07217" lon="3.23786">
        <ele>182.8</ele>
        <time>2024-03-31T10:36:12Z</time>
      </trkpt>
      <trkpt lat="48.07214" lon="3.23789">
        <ele>182.6</ele>
        <time>2024-03-31T10:36:14Z</time>
      </trkpt>
      <trkpt lat="48.07206" lon="3.23799">
        <ele>182</ele>
        <time>2024-03-31T10:36:24Z</time>
      </trkpt>
      <trkpt lat="48.07195" lon="3.23809">
        <ele>180.9</ele>
        <time>2024-03-31T10:36:32Z</time>
      </trkpt>
      <trkpt lat="48.07178" lon="3.23834">
        <ele>179.4</ele>
        <time>2024-03-31T10:36:42Z</time>
      </trkpt>
      <trkpt lat="48.07174" lon="3.23843">
        <ele>179</ele>
        <time>2024-03-31T10:36:48Z</time>
      </trkpt>
      <trkpt lat="48.07164" lon="3.23858">
        <ele>178</ele>
        <time>2024-03-31T10:36:58Z</time>
      </trkpt>
      <trkpt lat="48.07153" lon="3.2387">
        <ele>177.2</ele>
        <time>2024-03-31T10:37:08Z</time>
      </trkpt>
      <trkpt lat="48.0714" lon="3.23888">
        <ele>176.1</ele>
        <time>2024-03-31T10:37:18Z</time>
      </trkpt>
      <trkpt lat="48.07135" lon="3.23899">
        <ele>175.2</ele>
        <time>2024-03-31T10:37:28Z</time>
      </trkpt>
      <trkpt lat="48.07128" lon="3.23909">
        <ele>174.1</ele>
        <time>2024-03-31T10:37:36Z</time>
      </trkpt>
      <trkpt lat="48.0712" lon="3.2392">
        <ele>172.9</ele>
        <time>2024-03-31T10:37:44Z</time>
      </trkpt>
      <trkpt lat="48.0712" lon="3.23927">
        <ele>172.8</ele>
        <time>2024-03-31T10:37:47Z</time>
      </trkpt>
      <trkpt lat="48.07116" lon="3.23942">
        <ele>172.4</ele>
        <time>2024-03-31T10:37:56Z</time>
      </trkpt>
      <trkpt lat="48.07114" lon="3.23959">
        <ele>171.7</ele>
        <time>2024-03-31T10:38:05Z</time>
      </trkpt>
      <trkpt lat="48.07115" lon="3.23968">
        <ele>171.4</ele>
        <time>2024-03-31T10:38:12Z</time>
      </trkpt>
      <trkpt lat="48.07117" lon="3.23978">
        <ele>171.3</ele>
        <time>2024-03-31T10:38:19Z</time>
      </trkpt>
      <trkpt lat="48.07125" lon="3.23988">
        <ele>171.4</ele>
        <time>2024-03-31T10:38:27Z</time>
      </trkpt>
      <trkpt lat="48.07133" lon="3.23996">
        <ele>171.2</ele>
        <time>2024-03-31T10:38:35Z</time>
      </trkpt>
      <trkpt lat="48.07134" lon="3.24013">
        <ele>170.6</ele>
        <time>2024-03-31T10:38:43Z</time>
      </trkpt>
      <trkpt lat="48.07142" lon="3.24023">
        <ele>170.3</ele>
        <time>2024-03-31T10:38:51Z</time>
      </trkpt>
      <trkpt lat="48.07154" lon="3.24036">
        <ele>170.2</ele>
        <time>2024-03-31T10:39:02Z</time>
      </trkpt>
      <trkpt lat="48.07159" lon="3.24046">
        <ele>169.8</ele>
        <time>2024-03-31T10:39:10Z</time>
      </trkpt>
      <trkpt lat="48.07161" lon="3.24057">
        <ele>169.1</ele>
        <time>2024-03-31T10:39:19Z</time>
      </trkpt>
      <trkpt lat="48.07168" lon="3.24069">
        <ele>168</ele>
        <time>2024-03-31T10:39:27Z</time>
      </trkpt>
      <trkpt lat="48.07168" lon="3.2407">
        <ele>168</ele>
        <time>2024-03-31T10:39:28Z</time>
      </trkpt>
      <trkpt lat="48.07175" lon="3.24083">
        <ele>167</ele>
        <time>2024-03-31T10:39:35Z</time>
      </trkpt>
      <trkpt lat="48.07183" lon="3.24097">
        <ele>166.2</ele>
        <time>2024-03-31T10:39:44Z</time>
      </trkpt>
      <trkpt lat="48.07188" lon="3.24111">
        <ele>165.2</ele>
        <time>2024-03-31T10:39:53Z</time>
      </trkpt>
      <trkpt lat="48.07197" lon="3.2413">
        <ele>164.4</ele>
        <time>2024-03-31T10:40:02Z</time>
      </trkpt>
      <trkpt lat="48.07198" lon="3.24144">
        <ele>163.8</ele>
        <time>2024-03-31T10:40:12Z</time>
      </trkpt>
      <trkpt lat="48.07205" lon="3.24156">
        <ele>163.4</ele>
        <time>2024-03-31T10:40:20Z</time>
      </trkpt>
      <trkpt lat="48.07215" lon="3.24172">
        <ele>162.7</ele>
        <time>2024-03-31T10:40:29Z</time>
      </trkpt>
      <trkpt lat="48.07222" lon="3.24183">
        <ele>161.8</ele>
        <time>2024-03-31T10:40:34Z</time>
      </trkpt>
      <trkpt lat="48.0723" lon="3.24198">
        <ele>161.4</ele>
        <time>2024-03-31T10:40:42Z</time>
      </trkpt>
      <trkpt lat="48.07233" lon="3.24213">
        <ele>161.1</ele>
        <time>2024-03-31T10:40:49Z</time>
      </trkpt>
      <trkpt lat="48.07235" lon="3.2423">
        <ele>160.5</ele>
        <time>2024-03-31T10:40:57Z</time>
      </trkpt>
      <trkpt lat="48.07234" lon="3.24243">
        <ele>159.8</ele>
        <time>2024-03-31T10:41:05Z</time>
      </trkpt>
      <trkpt lat="48.07239" lon="3.24257">
        <ele>159.4</ele>
        <time>2024-03-31T10:41:15Z</time>
      </trkpt>
      <trkpt lat="48.07236" lon="3.24267">
        <ele>158.9</ele>
        <time>2024-03-31T10:41:20Z</time>
      </trkpt>
      <trkpt lat="48.07237" lon="3.24329">
        <ele>156.2</ele>
        <time>2024-03-31T10:41:51Z</time>
      </trkpt>
      <trkpt lat="48.07234" lon="3.24341">
        <ele>155.7</ele>
        <time>2024-03-31T10:41:59Z</time>
      </trkpt>
      <trkpt lat="48.0723" lon="3.24359">
        <ele>155.1</ele>
        <time>2024-03-31T10:42:08Z</time>
      </trkpt>
      <trkpt lat="48.07227" lon="3.2436">
        <ele>155</ele>
        <time>2024-03-31T10:42:10Z</time>
      </trkpt>
      <trkpt lat="48.07224" lon="3.2438">
        <ele>154.4</ele>
        <time>2024-03-31T10:42:20Z</time>
      </trkpt>
      <trkpt lat="48.07225" lon="3.24391">
        <ele>154</ele>
        <time>2024-03-31T10:42:30Z</time>
      </trkpt>
      <trkpt lat="48.07225" lon="3.24403">
        <ele>153.6</ele>
        <time>2024-03-31T10:42:38Z</time>
      </trkpt>
      <trkpt lat="48.07225" lon="3.24404">
        <ele>153.6</ele>
        <time>2024-03-31T10:42:39Z</time>
      </trkpt>
      <trkpt lat="48.07225" lon="3.24418">
        <ele>153.1</ele>
        <time>2024-03-31T10:42:47Z</time>
      </trkpt>
      <trkpt lat="48.07219" lon="3.24431">
        <ele>152.7</ele>
        <time>2024-03-31T10:42:58Z</time>
      </trkpt>
      <trkpt lat="48.07212" lon="3.24442">
        <ele>152.8</ele>
        <time>2024-03-31T10:43:06Z</time>
      </trkpt>
      <trkpt lat="48.07213" lon="3.2445">
        <ele>152.3</ele>
        <time>2024-03-31T10:43:10Z</time>
      </trkpt>
      <trkpt lat="48.07209" lon="3.24464">
        <ele>151.9</ele>
        <time>2024-03-31T10:43:17Z</time>
      </trkpt>
      <trkpt lat="48.07205" lon="3.24476">
        <ele>151.7</ele>
        <time>2024-03-31T10:43:25Z</time>
      </trkpt>
      <trkpt lat="48.07206" lon="3.24489">
        <ele>151</ele>
        <time>2024-03-31T10:43:32Z</time>
      </trkpt>
      <trkpt lat="48.07203" lon="3.24506">
        <ele>150.3</ele>
        <time>2024-03-31T10:43:41Z</time>
      </trkpt>
      <trkpt lat="48.07199" lon="3.24509">
        <ele>150.2</ele>
        <time>2024-03-31T10:43:44Z</time>
      </trkpt>
      <trkpt lat="48.0719" lon="3.24528">
        <ele>149.3</ele>
        <time>2024-03-31T10:43:53Z</time>
      </trkpt>
      <trkpt lat="48.07195" lon="3.24546">
        <ele>147.7</ele>
        <time>2024-03-31T10:43:58Z</time>
      </trkpt>
      <trkpt lat="48.07191" lon="3.24562">
        <ele>147</ele>
        <time>2024-03-31T10:44:07Z</time>
      </trkpt>
      <trkpt lat="48.07198" lon="3.24575">
        <ele>146.3</ele>
        <time>2024-03-31T10:44:14Z</time>
      </trkpt>
      <trkpt lat="48.07204" lon="3.24593">
        <ele>145.8</ele>
        <time>2024-03-31T10:44:21Z</time>
      </trkpt>
      <trkpt lat="48.07205" lon="3.24602">
        <ele>145.6</ele>
        <time>2024-03-31T10:44:30Z</time>
      </trkpt>
      <trkpt lat="48.07207" lon="3.24613">
        <ele>145.5</ele>
        <time>2024-03-31T10:44:38Z</time>
      </trkpt>
      <trkpt lat="48.07211" lon="3.2462">
        <ele>145.5</ele>
        <time>2024-03-31T10:44:45Z</time>
      </trkpt>
      <trkpt lat="48.0721" lon="3.24626">
        <ele>145.5</ele>
        <time>2024-03-31T10:44:50Z</time>
      </trkpt>
      <trkpt lat="48.0722" lon="3.24641">
        <ele>145.2</ele>
        <time>2024-03-31T10:44:59Z</time>
      </trkpt>
      <trkpt lat="48.07222" lon="3.24644">
        <ele>145.2</ele>
        <time>2024-03-31T10:45:01Z</time>
      </trkpt>
      <trkpt lat="48.07233" lon="3.24656">
        <ele>145.9</ele>
        <time>2024-03-31T10:45:10Z</time>
      </trkpt>
      <trkpt lat="48.07241" lon="3.24669">
        <ele>146</ele>
        <time>2024-03-31T10:45:20Z</time>
      </trkpt>
      <trkpt lat="48.07251" lon="3.24681">
        <ele>146.1</ele>
        <time>2024-03-31T10:45:30Z</time>
      </trkpt>
      <trkpt lat="48.07255" lon="3.24687">
        <ele>146.3</ele>
        <time>2024-03-31T10:45:34Z</time>
      </trkpt>
      <trkpt lat="48.07264" lon="3.24698">
        <ele>146.4</ele>
        <time>2024-03-31T10:45:44Z</time>
      </trkpt>
      <trkpt lat="48.07273" lon="3.2471">
        <ele>146</ele>
        <time>2024-03-31T10:45:53Z</time>
      </trkpt>
      <trkpt lat="48.0728" lon="3.24723">
        <ele>145.2</ele>
        <time>2024-03-31T10:46:02Z</time>
      </trkpt>
      <trkpt lat="48.07285" lon="3.24734">
        <ele>145.6</ele>
        <time>2024-03-31T10:46:09Z</time>
      </trkpt>
      <trkpt lat="48.07287" lon="3.24737">
        <ele>145.7</ele>
        <time>2024-03-31T10:46:11Z</time>
      </trkpt>
      <trkpt lat="48.07292" lon="3.24744">
        <ele>145.6</ele>
        <time>2024-03-31T10:46:18Z</time>
      </trkpt>
      <trkpt lat="48.07301" lon="3.24753">
        <ele>145.2</ele>
        <time>2024-03-31T10:46:27Z</time>
      </trkpt>
      <trkpt lat="48.07309" lon="3.2476">
        <ele>145</ele>
        <time>2024-03-31T10:46:34Z</time>
      </trkpt>
      <trkpt lat="48.07319" lon="3.24765">
        <ele>145</ele>
        <time>2024-03-31T10:46:41Z</time>
      </trkpt>
      <trkpt lat="48.07327" lon="3.2477">
        <ele>144.7</ele>
        <time>2024-03-31T10:46:50Z</time>
      </trkpt>
      <trkpt lat="48.07338" lon="3.24775">
        <ele>144.2</ele>
        <time>2024-03-31T10:46:58Z</time>
      </trkpt>
      <trkpt lat="48.0735" lon="3.24785">
        <ele>143.6</ele>
        <time>2024-03-31T10:47:07Z</time>
      </trkpt>
      <trkpt lat="48.07356" lon="3.24789">
        <ele>143.3</ele>
        <time>2024-03-31T10:47:13Z</time>
      </trkpt>
      <trkpt lat="48.07361" lon="3.24796">
        <ele>142.7</ele>
        <time>2024-03-31T10:47:21Z</time>
      </trkpt>
      <trkpt lat="48.07366" lon="3.24802">
        <ele>142.5</ele>
        <time>2024-03-31T10:47:29Z</time>
      </trkpt>
      <trkpt lat="48.07367" lon="3.24806">
        <ele>142.2</ele>
        <time>2024-03-31T10:47:37Z</time>
      </trkpt>
      <trkpt lat="48.07373" lon="3.2481">
        <ele>142.4</ele>
        <time>2024-03-31T10:47:44Z</time>
      </trkpt>
      <trkpt lat="48.07373" lon="3.24807">
        <ele>142.4</ele>
        <time>2024-03-31T10:48:56Z</time>
      </trkpt>
      <trkpt lat="48.0737" lon="3.2483">
        <ele>142.4</ele>
        <time>2024-03-31T10:49:21Z</time>
      </trkpt>
      <trkpt lat="48.07391" lon="3.24824">
        <ele>141.7</ele>
        <time>2024-03-31T10:49:27Z</time>
      </trkpt>
      <trkpt lat="48.07398" lon="3.24829">
        <ele>141.4</ele>
        <time>2024-03-31T10:49:34Z</time>
      </trkpt>
      <trkpt lat="48.07399" lon="3.2483">
        <ele>141.3</ele>
        <time>2024-03-31T10:49:36Z</time>
      </trkpt>
      <trkpt lat="48.07407" lon="3.24841">
        <ele>140.9</ele>
        <time>2024-03-31T10:49:45Z</time>
      </trkpt>
      <trkpt lat="48.07411" lon="3.24849">
        <ele>140.7</ele>
        <time>2024-03-31T10:49:50Z</time>
      </trkpt>
      <trkpt lat="48.0742" lon="3.2486">
        <ele>140</ele>
        <time>2024-03-31T10:49:59Z</time>
      </trkpt>
      <trkpt lat="48.07427" lon="3.24868">
        <ele>139.8</ele>
        <time>2024-03-31T10:50:07Z</time>
      </trkpt>
      <trkpt lat="48.07434" lon="3.24876">
        <ele>139.3</ele>
        <time>2024-03-31T10:50:15Z</time>
      </trkpt>
      <trkpt lat="48.07439" lon="3.24888">
        <ele>138.4</ele>
        <time>2024-03-31T10:50:24Z</time>
      </trkpt>
      <trkpt lat="48.07444" lon="3.24893">
        <ele>137.9</ele>
        <time>2024-03-31T10:50:30Z</time>
      </trkpt>
      <trkpt lat="48.07448" lon="3.24901">
        <ele>137.6</ele>
        <time>2024-03-31T10:50:36Z</time>
      </trkpt>
      <trkpt lat="48.07456" lon="3.24913">
        <ele>136.8</ele>
        <time>2024-03-31T10:50:45Z</time>
      </trkpt>
      <trkpt lat="48.07459" lon="3.24918">
        <ele>136.5</ele>
        <time>2024-03-31T10:50:51Z</time>
      </trkpt>
      <trkpt lat="48.07461" lon="3.24924">
        <ele>136.5</ele>
        <time>2024-03-31T10:50:56Z</time>
      </trkpt>
      <trkpt lat="48.07472" lon="3.24938">
        <ele>135.3</ele>
        <time>2024-03-31T10:51:06Z</time>
      </trkpt>
      <trkpt lat="48.07476" lon="3.2495">
        <ele>135.1</ele>
        <time>2024-03-31T10:51:13Z</time>
      </trkpt>
      <trkpt lat="48.07477" lon="3.24955">
        <ele>135.2</ele>
        <time>2024-03-31T10:51:21Z</time>
      </trkpt>
      <trkpt lat="48.07479" lon="3.24959">
        <ele>135.3</ele>
        <time>2024-03-31T10:51:33Z</time>
      </trkpt>
      <trkpt lat="48.07483" lon="3.24962">
        <ele>135.1</ele>
        <time>2024-03-31T10:51:37Z</time>
      </trkpt>
      <trkpt lat="48.07495" lon="3.24971">
        <ele>134.4</ele>
        <time>2024-03-31T10:51:46Z</time>
      </trkpt>
      <trkpt lat="48.07505" lon="3.24978">
        <ele>134.1</ele>
        <time>2024-03-31T10:51:54Z</time>
      </trkpt>
      <trkpt lat="48.07513" lon="3.24984">
        <ele>134.1</ele>
        <time>2024-03-31T10:52:01Z</time>
      </trkpt>
      <trkpt lat="48.07516" lon="3.24987">
        <ele>134</ele>
        <time>2024-03-31T10:52:05Z</time>
      </trkpt>
      <trkpt lat="48.0752" lon="3.24991">
        <ele>133.7</ele>
        <time>2024-03-31T10:52:12Z</time>
      </trkpt>
      <trkpt lat="48.07523" lon="3.24996">
        <ele>133.4</ele>
        <time>2024-03-31T10:52:16Z</time>
      </trkpt>
      <trkpt lat="48.07525" lon="3.24998">
        <ele>133.2</ele>
        <time>2024-03-31T10:52:18Z</time>
      </trkpt>
      <trkpt lat="48.07529" lon="3.25003">
        <ele>133.1</ele>
        <time>2024-03-31T10:52:22Z</time>
      </trkpt>
      <trkpt lat="48.07534" lon="3.2501">
        <ele>133.4</ele>
        <time>2024-03-31T10:52:26Z</time>
      </trkpt>
      <trkpt lat="48.07541" lon="3.25024">
        <ele>133.2</ele>
        <time>2024-03-31T10:52:35Z</time>
      </trkpt>
      <trkpt lat="48.07547" lon="3.25037">
        <ele>132.5</ele>
        <time>2024-03-31T10:52:43Z</time>
      </trkpt>
      <trkpt lat="48.0755" lon="3.25043">
        <ele>132.1</ele>
        <time>2024-03-31T10:52:47Z</time>
      </trkpt>
      <trkpt lat="48.07558" lon="3.25052">
        <ele>131.5</ele>
        <time>2024-03-31T10:52:54Z</time>
      </trkpt>
      <trkpt lat="48.0756" lon="3.25055">
        <ele>131.5</ele>
        <time>2024-03-31T10:52:56Z</time>
      </trkpt>
      <trkpt lat="48.07564" lon="3.2507">
        <ele>130.6</ele>
        <time>2024-03-31T10:53:04Z</time>
      </trkpt>
      <trkpt lat="48.07562" lon="3.25084">
        <ele>129.2</ele>
        <time>2024-03-31T10:53:11Z</time>
      </trkpt>
      <trkpt lat="48.07561" lon="3.25104">
        <ele>128.6</ele>
        <time>2024-03-31T10:53:21Z</time>
      </trkpt>
      <trkpt lat="48.07563" lon="3.25118">
        <ele>128.1</ele>
        <time>2024-03-31T10:53:30Z</time>
      </trkpt>
      <trkpt lat="48.07565" lon="3.25122">
        <ele>127.8</ele>
        <time>2024-03-31T10:53:38Z</time>
      </trkpt>
      <trkpt lat="48.07569" lon="3.25132">
        <ele>127.2</ele>
        <time>2024-03-31T10:53:46Z</time>
      </trkpt>
      <trkpt lat="48.07576" lon="3.25143">
        <ele>126.2</ele>
        <time>2024-03-31T10:53:54Z</time>
      </trkpt>
      <trkpt lat="48.07576" lon="3.25144">
        <ele>126.3</ele>
        <time>2024-03-31T10:53:55Z</time>
      </trkpt>
      <trkpt lat="48.0758" lon="3.25155">
        <ele>126.1</ele>
        <time>2024-03-31T10:54:02Z</time>
      </trkpt>
      <trkpt lat="48.07586" lon="3.25162">
        <ele>125.9</ele>
        <time>2024-03-31T10:54:10Z</time>
      </trkpt>
      <trkpt lat="48.07591" lon="3.25172">
        <ele>126.2</ele>
        <time>2024-03-31T10:54:17Z</time>
      </trkpt>
      <trkpt lat="48.07593" lon="3.25179">
        <ele>126.4</ele>
        <time>2024-03-31T10:54:23Z</time>
      </trkpt>
      <trkpt lat="48.07597" lon="3.2519">
        <ele>126.4</ele>
        <time>2024-03-31T10:54:30Z</time>
      </trkpt>
      <trkpt lat="48.07603" lon="3.252">
        <ele>126.1</ele>
        <time>2024-03-31T10:54:37Z</time>
      </trkpt>
      <trkpt lat="48.07611" lon="3.2521">
        <ele>125.6</ele>
        <time>2024-03-31T10:54:44Z</time>
      </trkpt>
      <trkpt lat="48.07615" lon="3.25219">
        <ele>125.9</ele>
        <time>2024-03-31T10:54:50Z</time>
      </trkpt>
      <trkpt lat="48.07615" lon="3.2522">
        <ele>125.9</ele>
        <time>2024-03-31T10:54:51Z</time>
      </trkpt>
      <trkpt lat="48.07622" lon="3.25233">
        <ele>126.1</ele>
        <time>2024-03-31T10:54:58Z</time>
      </trkpt>
      <trkpt lat="48.07628" lon="3.25247">
        <ele>125.8</ele>
        <time>2024-03-31T10:55:06Z</time>
      </trkpt>
      <trkpt lat="48.07629" lon="3.25256">
        <ele>125.8</ele>
        <time>2024-03-31T10:55:14Z</time>
      </trkpt>
      <trkpt lat="48.07633" lon="3.25264">
        <ele>125.5</ele>
        <time>2024-03-31T10:55:21Z</time>
      </trkpt>
      <trkpt lat="48.07638" lon="3.25273">
        <ele>125.1</ele>
        <time>2024-03-31T10:55:27Z</time>
      </trkpt>
      <trkpt lat="48.07639" lon="3.25282">
        <ele>125.2</ele>
        <time>2024-03-31T10:55:32Z</time>
      </trkpt>
      <trkpt lat="48.07645" lon="3.25289">
        <ele>125.3</ele>
        <time>2024-03-31T10:55:36Z</time>
      </trkpt>
      <trkpt lat="48.07657" lon="3.25305">
        <ele>125.3</ele>
        <time>2024-03-31T10:55:42Z</time>
      </trkpt>
      <trkpt lat="48.07661" lon="3.25315">
        <ele>125</ele>
        <time>2024-03-31T10:55:48Z</time>
      </trkpt>
      <trkpt lat="48.07662" lon="3.25326">
        <ele>124.7</ele>
        <time>2024-03-31T10:55:56Z</time>
      </trkpt>
      <trkpt lat="48.07663" lon="3.25331">
        <ele>124.5</ele>
        <time>2024-03-31T10:56:01Z</time>
      </trkpt>
      <trkpt lat="48.07666" lon="3.25341">
        <ele>124.1</ele>
        <time>2024-03-31T10:56:09Z</time>
      </trkpt>
      <trkpt lat="48.07668" lon="3.25348">
        <ele>124</ele>
        <time>2024-03-31T10:56:15Z</time>
      </trkpt>
      <trkpt lat="48.07671" lon="3.25357">
        <ele>124</ele>
        <time>2024-03-31T10:56:20Z</time>
      </trkpt>
      <trkpt lat="48.07673" lon="3.25365">
        <ele>123.8</ele>
        <time>2024-03-31T10:56:28Z</time>
      </trkpt>
      <trkpt lat="48.07675" lon="3.2537">
        <ele>123.6</ele>
        <time>2024-03-31T10:56:33Z</time>
      </trkpt>
      <trkpt lat="48.07678" lon="3.25384">
        <ele>122.8</ele>
        <time>2024-03-31T10:56:42Z</time>
      </trkpt>
      <trkpt lat="48.07679" lon="3.25395">
        <ele>122.6</ele>
        <time>2024-03-31T10:56:50Z</time>
      </trkpt>
      <trkpt lat="48.0768" lon="3.25405">
        <ele>122.5</ele>
        <time>2024-03-31T10:56:56Z</time>
      </trkpt>
      <trkpt lat="48.07681" lon="3.25409">
        <ele>122.5</ele>
        <time>2024-03-31T10:56:58Z</time>
      </trkpt>
      <trkpt lat="48.07682" lon="3.25412">
        <ele>122.4</ele>
        <time>2024-03-31T10:57:00Z</time>
      </trkpt>
      <trkpt lat="48.07685" lon="3.25427">
        <ele>122</ele>
        <time>2024-03-31T10:57:07Z</time>
      </trkpt>
      <trkpt lat="48.07687" lon="3.25437">
        <ele>121.8</ele>
        <time>2024-03-31T10:57:14Z</time>
      </trkpt>
      <trkpt lat="48.0769" lon="3.25447">
        <ele>121.5</ele>
        <time>2024-03-31T10:57:21Z</time>
      </trkpt>
      <trkpt lat="48.07688" lon="3.2545">
        <ele>121.7</ele>
        <time>2024-03-31T10:57:24Z</time>
      </trkpt>
      <trkpt lat="48.07688" lon="3.25455">
        <ele>121.8</ele>
        <time>2024-03-31T10:57:27Z</time>
      </trkpt>
      <trkpt lat="48.07689" lon="3.25466">
        <ele>121.7</ele>
        <time>2024-03-31T10:57:32Z</time>
      </trkpt>
      <trkpt lat="48.07696" lon="3.25483">
        <ele>121</ele>
        <time>2024-03-31T10:57:40Z</time>
      </trkpt>
      <trkpt lat="48.077" lon="3.25496">
        <ele>120.9</ele>
        <time>2024-03-31T10:57:54Z</time>
      </trkpt>
      <trkpt lat="48.07707" lon="3.25512">
        <ele>120.4</ele>
        <time>2024-03-31T10:58:02Z</time>
      </trkpt>
      <trkpt lat="48.07709" lon="3.25522">
        <ele>120.1</ele>
        <time>2024-03-31T10:58:07Z</time>
      </trkpt>
      <trkpt lat="48.0771" lon="3.25533">
        <ele>119.7</ele>
        <time>2024-03-31T10:58:12Z</time>
      </trkpt>
      <trkpt lat="48.07715" lon="3.25548">
        <ele>118.8</ele>
        <time>2024-03-31T10:58:20Z</time>
      </trkpt>
      <trkpt lat="48.07715" lon="3.25558">
        <ele>118.5</ele>
        <time>2024-03-31T10:58:25Z</time>
      </trkpt>
      <trkpt lat="48.07716" lon="3.25573">
        <ele>118</ele>
        <time>2024-03-31T10:58:33Z</time>
      </trkpt>
      <trkpt lat="48.07715" lon="3.2559">
        <ele>117.7</ele>
        <time>2024-03-31T10:58:42Z</time>
      </trkpt>
      <trkpt lat="48.07715" lon="3.256">
        <ele>117.6</ele>
        <time>2024-03-31T10:58:48Z</time>
      </trkpt>
      <trkpt lat="48.07718" lon="3.25608">
        <ele>117.3</ele>
        <time>2024-03-31T10:58:56Z</time>
      </trkpt>
      <trkpt lat="48.07719" lon="3.25628">
        <ele>116.7</ele>
        <time>2024-03-31T10:59:04Z</time>
      </trkpt>
      <trkpt lat="48.07721" lon="3.25643">
        <ele>116.1</ele>
        <time>2024-03-31T10:59:12Z</time>
      </trkpt>
      <trkpt lat="48.07724" lon="3.25653">
        <ele>116.2</ele>
        <time>2024-03-31T10:59:16Z</time>
      </trkpt>
      <trkpt lat="48.07723" lon="3.25671">
        <ele>116.1</ele>
        <time>2024-03-31T10:59:25Z</time>
      </trkpt>
      <trkpt lat="48.0772" lon="3.25682">
        <ele>116.1</ele>
        <time>2024-03-31T10:59:31Z</time>
      </trkpt>
      <trkpt lat="48.07716" lon="3.25696">
        <ele>116.2</ele>
        <time>2024-03-31T10:59:39Z</time>
      </trkpt>
      <trkpt lat="48.07716" lon="3.25697">
        <ele>116.2</ele>
        <time>2024-03-31T10:59:40Z</time>
      </trkpt>
      <trkpt lat="48.07714" lon="3.2571">
        <ele>116.3</ele>
        <time>2024-03-31T10:59:47Z</time>
      </trkpt>
      <trkpt lat="48.07711" lon="3.25721">
        <ele>116.4</ele>
        <time>2024-03-31T10:59:53Z</time>
      </trkpt>
      <trkpt lat="48.07711" lon="3.25741">
        <ele>116.1</ele>
        <time>2024-03-31T11:00:04Z</time>
      </trkpt>
      <trkpt lat="48.07712" lon="3.25745">
        <ele>116.1</ele>
        <time>2024-03-31T11:00:07Z</time>
      </trkpt>
      <trkpt lat="48.07709" lon="3.25755">
        <ele>116</ele>
        <time>2024-03-31T11:00:12Z</time>
      </trkpt>
      <trkpt lat="48.07707" lon="3.25772">
        <ele>115.9</ele>
        <time>2024-03-31T11:00:20Z</time>
      </trkpt>
      <trkpt lat="48.07704" lon="3.25788">
        <ele>115.7</ele>
        <time>2024-03-31T11:00:29Z</time>
      </trkpt>
      <trkpt lat="48.07702" lon="3.25796">
        <ele>115.5</ele>
        <time>2024-03-31T11:00:33Z</time>
      </trkpt>
      <trkpt lat="48.07703" lon="3.25809">
        <ele>115.4</ele>
        <time>2024-03-31T11:00:40Z</time>
      </trkpt>
      <trkpt lat="48.07702" lon="3.25828">
        <ele>114.4</ele>
        <time>2024-03-31T11:00:49Z</time>
      </trkpt>
      <trkpt lat="48.07702" lon="3.25842">
        <ele>113.8</ele>
        <time>2024-03-31T11:00:57Z</time>
      </trkpt>
      <trkpt lat="48.07702" lon="3.25857">
        <ele>113.2</ele>
        <time>2024-03-31T11:01:05Z</time>
      </trkpt>
      <trkpt lat="48.077" lon="3.25869">
        <ele>112.6</ele>
        <time>2024-03-31T11:01:12Z</time>
      </trkpt>
      <trkpt lat="48.07698" lon="3.25878">
        <ele>112</ele>
        <time>2024-03-31T11:01:16Z</time>
      </trkpt>
      <trkpt lat="48.07697" lon="3.25892">
        <ele>111.5</ele>
        <time>2024-03-31T11:01:23Z</time>
      </trkpt>
      <trkpt lat="48.07695" lon="3.25898">
        <ele>111.1</ele>
        <time>2024-03-31T11:01:26Z</time>
      </trkpt>
      <trkpt lat="48.07692" lon="3.25916">
        <ele>111.1</ele>
        <time>2024-03-31T11:01:34Z</time>
      </trkpt>
      <trkpt lat="48.07691" lon="3.25924">
        <ele>111.1</ele>
        <time>2024-03-31T11:01:38Z</time>
      </trkpt>
      <trkpt lat="48.07691" lon="3.2593">
        <ele>111.1</ele>
        <time>2024-03-31T11:01:41Z</time>
      </trkpt>
      <trkpt lat="48.0769" lon="3.25939">
        <ele>111</ele>
        <time>2024-03-31T11:01:46Z</time>
      </trkpt>
      <trkpt lat="48.0769" lon="3.25943">
        <ele>111</ele>
        <time>2024-03-31T11:01:48Z</time>
      </trkpt>
      <trkpt lat="48.07691" lon="3.2596">
        <ele>110.5</ele>
        <time>2024-03-31T11:01:57Z</time>
      </trkpt>
      <trkpt lat="48.0769" lon="3.25973">
        <ele>110.2</ele>
        <time>2024-03-31T11:02:04Z</time>
      </trkpt>
      <trkpt lat="48.07686" lon="3.25985">
        <ele>110.2</ele>
        <time>2024-03-31T11:02:10Z</time>
      </trkpt>
      <trkpt lat="48.07684" lon="3.2599">
        <ele>110.1</ele>
        <time>2024-03-31T11:02:14Z</time>
      </trkpt>
      <trkpt lat="48.0769" lon="3.26008">
        <ele>110</ele>
        <time>2024-03-31T11:02:23Z</time>
      </trkpt>
      <trkpt lat="48.07689" lon="3.26023">
        <ele>110</ele>
        <time>2024-03-31T11:02:32Z</time>
      </trkpt>
      <trkpt lat="48.07689" lon="3.2603">
        <ele>110.1</ele>
        <time>2024-03-31T11:02:36Z</time>
      </trkpt>
      <trkpt lat="48.07689" lon="3.26045">
        <ele>110.5</ele>
        <time>2024-03-31T11:02:43Z</time>
      </trkpt>
      <trkpt lat="48.07687" lon="3.26064">
        <ele>110.4</ele>
        <time>2024-03-31T11:02:52Z</time>
      </trkpt>
      <trkpt lat="48.07685" lon="3.2607">
        <ele>110.1</ele>
        <time>2024-03-31T11:02:55Z</time>
      </trkpt>
      <trkpt lat="48.07687" lon="3.26086">
        <ele>109.6</ele>
        <time>2024-03-31T11:03:04Z</time>
      </trkpt>
      <trkpt lat="48.07686" lon="3.26093">
        <ele>109.3</ele>
        <time>2024-03-31T11:03:07Z</time>
      </trkpt>
      <trkpt lat="48.07684" lon="3.26113">
        <ele>108.6</ele>
        <time>2024-03-31T11:03:17Z</time>
      </trkpt>
      <trkpt lat="48.07682" lon="3.26121">
        <ele>108.4</ele>
        <time>2024-03-31T11:03:22Z</time>
      </trkpt>
      <trkpt lat="48.0768" lon="3.26137">
        <ele>108</ele>
        <time>2024-03-31T11:03:31Z</time>
      </trkpt>
      <trkpt lat="48.0768" lon="3.26141">
        <ele>108</ele>
        <time>2024-03-31T11:03:33Z</time>
      </trkpt>
      <trkpt lat="48.0768" lon="3.26148">
        <ele>107.8</ele>
        <time>2024-03-31T11:03:39Z</time>
      </trkpt>
      <trkpt lat="48.07677" lon="3.2615">
        <ele>107.7</ele>
        <time>2024-03-31T11:03:53Z</time>
      </trkpt>
      <trkpt lat="48.07677" lon="3.26152">
        <ele>107.7</ele>
        <time>2024-03-31T11:03:54Z</time>
      </trkpt>
      <trkpt lat="48.07678" lon="3.26162">
        <ele>107.5</ele>
        <time>2024-03-31T11:04:02Z</time>
      </trkpt>
      <trkpt lat="48.07678" lon="3.26164">
        <ele>107.5</ele>
        <time>2024-03-31T11:04:04Z</time>
      </trkpt>
      <trkpt lat="48.07677" lon="3.26172">
        <ele>107.3</ele>
        <time>2024-03-31T11:04:08Z</time>
      </trkpt>
      <trkpt lat="48.07676" lon="3.26195">
        <ele>107</ele>
        <time>2024-03-31T11:04:19Z</time>
      </trkpt>
      <trkpt lat="48.07676" lon="3.26215">
        <ele>106.5</ele>
        <time>2024-03-31T11:04:29Z</time>
      </trkpt>
      <trkpt lat="48.07676" lon="3.26221">
        <ele>106.4</ele>
        <time>2024-03-31T11:04:32Z</time>
      </trkpt>
      <trkpt lat="48.07676" lon="3.26239">
        <ele>106.3</ele>
        <time>2024-03-31T11:04:42Z</time>
      </trkpt>
      <trkpt lat="48.07678" lon="3.26254">
        <ele>106.3</ele>
        <time>2024-03-31T11:04:51Z</time>
      </trkpt>
      <trkpt lat="48.07678" lon="3.26258">
        <ele>106.1</ele>
        <time>2024-03-31T11:04:59Z</time>
      </trkpt>
      <trkpt lat="48.07677" lon="3.26263">
        <ele>105.9</ele>
        <time>2024-03-31T11:05:14Z</time>
      </trkpt>
      <trkpt lat="48.07677" lon="3.26268">
        <ele>105.7</ele>
        <time>2024-03-31T11:05:23Z</time>
        <extensions>
          <visugpx:TrkExtension xmlns:visugpx="https://www.visugpx.com/editgpx/">
            <visugpx:node>1</visugpx:node>
            </visugpx:TrkExtension>
        </extensions>
      </trkpt>
    </trkseg>
  </trk>
</gpx>